QFA28 SCEL-YSSY
Flight info
| Callsign | QFA28 |
|---|---|
| Flight time | N/A |
| Altitude | 33000 |
| Route | LINER UQ805 TIGNO UQ803 BODOM DCT 5133S07500W 5355S07744W 5528S08000W 5737S08337W 6059S09000W/N0480F340 6105S09014W 6445S10000W 6445S10001W 6711S11000W 6720S11046W 6851S12000W 6928S12543W/M084F360 6947S13100W 6958S14004W 6837S15520W 6708S16241W/M084F380 6321S17331W 6015S17837W 5536S17615E 5058S17118E 4910S16855E 4625S16518E 4409S16300E 4351S16243E/M084F400 3915S15736E DCT TONIM DCT RIKNI N774 MARLN |
| Aircraft | B789/H-SADE3GHIJ3J5M1P2RWYZ/LB1D1 |
Departure
| Time | N/A |
|---|---|
| Airport | Comodoro Arturo Merino Benítez International Airport (SCEL) |
Arrival
| Time | 2026-05-04 08:12 |
|---|---|
| Airport | Sydney Kingsford Smith International Airport (YSSY) |
| Time | Latitude | Longitude | Altitude | Speed | Heading |
|---|---|---|---|---|---|
| 2026-05-03 20:15 | -47.47590 | -73.17944 | 32939 ft | 489 kts | 193° |
| 2026-05-03 20:15 | -47.54288 | -73.19231 | 32938 ft | 489 kts | 193° |
| 2026-05-03 20:16 | -47.61072 | -73.20539 | 32938 ft | 489 kts | 193° |
| 2026-05-03 20:16 | -47.67816 | -73.21843 | 32939 ft | 489 kts | 193° |
| 2026-05-03 20:17 | -47.74515 | -73.23141 | 32939 ft | 489 kts | 193° |
| 2026-05-03 20:17 | -47.81305 | -73.24464 | 32944 ft | 495 kts | 192° |
| 2026-05-03 20:18 | -47.88135 | -73.25790 | 32938 ft | 495 kts | 192° |
| 2026-05-03 20:18 | -47.94962 | -73.27123 | 32939 ft | 495 kts | 192° |
| 2026-05-03 20:19 | -48.01781 | -73.28458 | 32940 ft | 495 kts | 192° |
| 2026-05-03 20:19 | -48.08606 | -73.29799 | 32940 ft | 495 kts | 192° |
| 2026-05-03 20:20 | -48.15428 | -73.31142 | 32936 ft | 495 kts | 192° |
| 2026-05-03 20:20 | -48.22237 | -73.32485 | 32936 ft | 495 kts | 192° |
| 2026-05-03 20:21 | -48.29075 | -73.33843 | 32934 ft | 497 kts | 192° |
| 2026-05-03 20:21 | -48.35952 | -73.35204 | 32937 ft | 501 kts | 192° |
| 2026-05-03 20:22 | -48.42606 | -73.36526 | 32936 ft | 499 kts | 192° |
| 2026-05-03 20:22 | -48.49475 | -73.37895 | 32938 ft | 499 kts | 192° |
| 2026-05-03 20:23 | -48.56376 | -73.39275 | 32937 ft | 499 kts | 192° |
| 2026-05-03 20:23 | -48.63278 | -73.40659 | 32938 ft | 499 kts | 192° |
| 2026-05-03 20:24 | -48.70159 | -73.42042 | 32938 ft | 499 kts | 192° |
| 2026-05-03 20:24 | -48.76995 | -73.43420 | 32937 ft | 499 kts | 192° |
| 2026-05-03 20:25 | -48.83936 | -73.44825 | 32942 ft | 505 kts | 191° |
| 2026-05-03 20:25 | -48.90907 | -73.46236 | 32863 ft | 504 kts | 191° |
| 2026-05-03 20:26 | -48.97809 | -73.47639 | 32728 ft | 503 kts | 191° |
| 2026-05-03 20:26 | -49.04757 | -73.49056 | 32592 ft | 504 kts | 191° |
| 2026-05-03 20:27 | -49.11685 | -73.50472 | 32450 ft | 504 kts | 191° |
| 2026-05-03 20:27 | -49.18615 | -73.51891 | 32338 ft | 503 kts | 191° |
| 2026-05-03 20:28 | -49.25580 | -73.53324 | 32342 ft | 503 kts | 191° |
| 2026-05-03 20:28 | -49.32490 | -73.54748 | 32339 ft | 501 kts | 191° |
| 2026-05-03 20:29 | -49.39371 | -73.56171 | 32342 ft | 502 kts | 191° |
| 2026-05-03 20:29 | -49.46318 | -73.57611 | 32342 ft | 502 kts | 191° |
| 2026-05-03 20:30 | -49.53192 | -73.59041 | 32342 ft | 502 kts | 191° |
| 2026-05-03 20:30 | -49.60126 | -73.60487 | 32343 ft | 502 kts | 191° |
| 2026-05-03 20:31 | -49.67043 | -73.61934 | 32343 ft | 502 kts | 191° |
| 2026-05-03 20:31 | -49.73943 | -73.63380 | 32343 ft | 502 kts | 191° |
| 2026-05-03 20:32 | -49.80841 | -73.64835 | 32344 ft | 503 kts | 191° |
| 2026-05-03 20:32 | -49.87841 | -73.66310 | 32350 ft | 507 kts | 191° |
| 2026-05-03 20:33 | -49.94801 | -73.67780 | 32349 ft | 505 kts | 191° |
| 2026-05-03 20:33 | -50.01718 | -73.69247 | 32350 ft | 505 kts | 191° |
| 2026-05-03 20:34 | -50.08676 | -73.70727 | 32350 ft | 505 kts | 191° |
| 2026-05-03 20:34 | -50.15659 | -73.72218 | 32344 ft | 505 kts | 191° |
| 2026-05-03 20:35 | -50.22565 | -73.73697 | 32345 ft | 505 kts | 191° |
| 2026-05-03 20:35 | -50.29554 | -73.75199 | 32343 ft | 505 kts | 191° |
| 2026-05-03 20:36 | -50.36385 | -73.77673 | 32354 ft | 505 kts | 205° |
| 2026-05-03 20:36 | -50.42479 | -73.82812 | 32348 ft | 498 kts | 216° |
| 2026-05-03 20:37 | -50.48338 | -73.88618 | 32346 ft | 497 kts | 216° |
| 2026-05-03 20:37 | -50.54116 | -73.94463 | 32346 ft | 497 kts | 217° |
| 2026-05-03 20:38 | -50.59952 | -74.00410 | 32346 ft | 497 kts | 217° |
| 2026-05-03 20:38 | -50.65729 | -74.06321 | 32346 ft | 497 kts | 217° |
| 2026-05-03 20:39 | -50.71515 | -74.12260 | 32347 ft | 497 kts | 217° |
| 2026-05-03 20:39 | -50.77292 | -74.18210 | 32359 ft | 497 kts | 216° |
| 2026-05-03 20:40 | -50.83118 | -74.24229 | 32487 ft | 504 kts | 216° |
| 2026-05-03 20:40 | -50.88988 | -74.30307 | 32481 ft | 504 kts | 216° |
| 2026-05-03 20:41 | -50.94841 | -74.36388 | 32483 ft | 502 kts | 216° |
| 2026-05-03 20:41 | -51.00701 | -74.42497 | 32484 ft | 503 kts | 216° |
| 2026-05-03 20:42 | -51.06521 | -74.48582 | 32484 ft | 503 kts | 216° |
| 2026-05-03 20:42 | -51.12346 | -74.54691 | 32475 ft | 503 kts | 216° |
| 2026-05-03 20:43 | -51.18180 | -74.60827 | 32477 ft | 503 kts | 216° |
| 2026-05-03 20:43 | -51.24012 | -74.66980 | 32480 ft | 503 kts | 217° |
| 2026-05-03 20:44 | -51.29850 | -74.73161 | 32479 ft | 505 kts | 217° |
| 2026-05-03 20:44 | -51.35723 | -74.79396 | 32478 ft | 507 kts | 217° |
| 2026-05-03 20:45 | -51.41595 | -74.85649 | 32480 ft | 505 kts | 217° |
| 2026-05-03 20:45 | -51.47455 | -74.91910 | 32481 ft | 506 kts | 217° |
| 2026-05-03 20:46 | -51.53308 | -74.98183 | 32481 ft | 506 kts | 217° |
| 2026-05-03 20:46 | -51.59149 | -75.04486 | 32481 ft | 506 kts | 217° |
| 2026-05-03 20:47 | -51.64968 | -75.10795 | 32482 ft | 506 kts | 217° |
| 2026-05-03 20:47 | -51.70802 | -75.17140 | 32482 ft | 506 kts | 217° |
| 2026-05-03 20:48 | -51.76643 | -75.23513 | 32480 ft | 506 kts | 217° |
| 2026-05-03 20:48 | -51.82511 | -75.29937 | 32483 ft | 510 kts | 217° |
| 2026-05-03 20:49 | -51.88379 | -75.36378 | 32482 ft | 508 kts | 217° |
| 2026-05-03 20:49 | -51.94221 | -75.42815 | 32484 ft | 508 kts | 217° |
| 2026-05-03 20:50 | -52.00071 | -75.49279 | 32484 ft | 508 kts | 217° |
| 2026-05-03 20:50 | -52.05892 | -75.55733 | 32484 ft | 508 kts | 217° |
| 2026-05-03 20:51 | -52.11714 | -75.62209 | 32478 ft | 508 kts | 217° |
| 2026-05-03 20:51 | -52.17577 | -75.68751 | 32478 ft | 508 kts | 218° |
| 2026-05-03 20:52 | -52.23378 | -75.75244 | 32479 ft | 508 kts | 218° |
| 2026-05-03 20:52 | -52.29222 | -75.81811 | 32479 ft | 508 kts | 217° |
| 2026-05-03 20:53 | -52.35021 | -75.88342 | 32479 ft | 508 kts | 217° |
| 2026-05-03 20:53 | -52.40832 | -75.94911 | 32480 ft | 508 kts | 217° |
| 2026-05-03 20:54 | -52.46646 | -76.01505 | 32480 ft | 508 kts | 217° |
| 2026-05-03 20:54 | -52.55350 | -76.11416 | 32481 ft | 508 kts | 217° |
| 2026-05-03 20:55 | -52.61177 | -76.18079 | 32481 ft | 508 kts | 217° |
| 2026-05-03 20:55 | -52.66973 | -76.24728 | 32482 ft | 508 kts | 217° |
| 2026-05-03 20:56 | -52.72794 | -76.31429 | 32485 ft | 511 kts | 217° |
| 2026-05-03 20:56 | -52.78589 | -76.38123 | 32481 ft | 509 kts | 217° |
| 2026-05-03 20:57 | -52.84395 | -76.44849 | 32483 ft | 508 kts | 217° |
| 2026-05-03 20:57 | -52.90205 | -76.51602 | 32483 ft | 509 kts | 217° |
| 2026-05-03 20:58 | -52.95969 | -76.58327 | 32484 ft | 509 kts | 217° |
| 2026-05-03 20:58 | -53.01756 | -76.65099 | 32484 ft | 509 kts | 218° |
| 2026-05-03 20:59 | -53.07548 | -76.71899 | 32485 ft | 508 kts | 218° |
| 2026-05-03 20:59 | -53.13321 | -76.78702 | 32475 ft | 511 kts | 218° |
| 2026-05-03 21:00 | -53.18146 | -76.84404 | 32478 ft | 513 kts | 218° |
| 2026-05-03 21:00 | -53.24930 | -76.92448 | 32478 ft | 511 kts | 218° |
| 2026-05-03 21:01 | -53.30718 | -76.99340 | 32477 ft | 509 kts | 217° |
| 2026-05-03 21:01 | -53.36484 | -77.06225 | 32482 ft | 509 kts | 217° |
| 2026-05-03 21:02 | -53.42209 | -77.13088 | 32479 ft | 507 kts | 216° |
| 2026-05-03 21:02 | -53.47957 | -77.19997 | 32481 ft | 509 kts | 216° |
| 2026-05-03 21:03 | -53.53712 | -77.26938 | 32479 ft | 509 kts | 216° |
| 2026-05-03 21:03 | -53.59470 | -77.33909 | 32482 ft | 511 kts | 216° |
| 2026-05-03 21:04 | -53.65220 | -77.40894 | 32482 ft | 510 kts | 216° |
| 2026-05-03 21:04 | -53.70987 | -77.47924 | 32483 ft | 510 kts | 216° |
| 2026-05-03 21:05 | -53.76740 | -77.54962 | 32485 ft | 509 kts | 216° |
| 2026-05-03 21:05 | -53.82446 | -77.61966 | 32483 ft | 507 kts | 216° |
| 2026-05-03 21:06 | -53.88160 | -77.69001 | 32482 ft | 508 kts | 216° |
| 2026-05-03 21:06 | -53.93767 | -77.76276 | 32483 ft | 508 kts | 220° |
| 2026-05-03 21:07 | -53.99242 | -77.83887 | 32483 ft | 510 kts | 220° |
| 2026-05-03 21:07 | -54.04742 | -77.91571 | 32483 ft | 509 kts | 220° |
| 2026-05-03 21:08 | -54.10213 | -77.99247 | 32484 ft | 509 kts | 220° |
| 2026-05-03 21:08 | -54.15675 | -78.06937 | 32479 ft | 509 kts | 220° |
| 2026-05-03 21:09 | -54.21132 | -78.14648 | 32479 ft | 509 kts | 220° |
| 2026-05-03 21:09 | -54.26588 | -78.22387 | 32483 ft | 509 kts | 220° |
| 2026-05-03 21:10 | -54.32016 | -78.30111 | 32481 ft | 507 kts | 219° |
| 2026-05-03 21:10 | -54.37444 | -78.37864 | 32481 ft | 509 kts | 219° |
| 2026-05-03 21:11 | -54.42880 | -78.45655 | 32481 ft | 508 kts | 219° |
| 2026-05-03 21:11 | -54.48280 | -78.53422 | 32482 ft | 508 kts | 219° |
| 2026-05-03 21:12 | -54.53693 | -78.61237 | 32482 ft | 508 kts | 219° |
| 2026-05-03 21:12 | -54.59125 | -78.69106 | 32480 ft | 508 kts | 220° |
| 2026-05-03 21:13 | -54.64513 | -78.76941 | 32479 ft | 509 kts | 220° |
| 2026-05-03 21:13 | -54.69934 | -78.84851 | 32481 ft | 510 kts | 220° |
| 2026-05-03 21:14 | -54.75375 | -78.92819 | 32481 ft | 510 kts | 220° |
| 2026-05-03 21:14 | -54.80730 | -79.00695 | 32476 ft | 502 kts | 220° |
| 2026-05-03 21:15 | -54.86049 | -79.08537 | 32484 ft | 504 kts | 220° |
| 2026-05-03 21:15 | -54.91417 | -79.16485 | 32482 ft | 505 kts | 220° |
| 2026-05-03 21:16 | -54.96739 | -79.24392 | 32482 ft | 504 kts | 220° |
| 2026-05-03 21:16 | -55.02094 | -79.32380 | 32484 ft | 506 kts | 219° |
| 2026-05-03 21:17 | -55.06550 | -79.39047 | 32482 ft | 505 kts | 219° |
| 2026-05-03 21:17 | -55.12736 | -79.48334 | 32481 ft | 505 kts | 219° |
| 2026-05-03 21:18 | -55.18068 | -79.56373 | 32481 ft | 505 kts | 219° |
| 2026-05-03 21:18 | -55.23412 | -79.64459 | 32482 ft | 505 kts | 219° |
| 2026-05-03 21:19 | -55.28708 | -79.72509 | 32479 ft | 504 kts | 219° |
| 2026-05-03 21:19 | -55.34015 | -79.80595 | 32480 ft | 503 kts | 219° |
| 2026-05-03 21:20 | -55.39289 | -79.88662 | 32480 ft | 504 kts | 219° |
| 2026-05-03 21:20 | -55.44579 | -79.96786 | 32480 ft | 505 kts | 219° |
| 2026-05-03 21:21 | -55.49852 | -80.04949 | 32481 ft | 505 kts | 220° |
| 2026-05-03 21:21 | -55.55105 | -80.13136 | 32481 ft | 505 kts | 220° |
| 2026-05-03 21:22 | -55.60380 | -80.21389 | 32481 ft | 506 kts | 220° |
| 2026-05-03 21:22 | -55.65672 | -80.29700 | 32482 ft | 506 kts | 220° |
| 2026-05-03 21:23 | -55.70929 | -80.37985 | 32482 ft | 506 kts | 220° |
| 2026-05-03 21:23 | -55.76189 | -80.46308 | 32483 ft | 506 kts | 220° |
| 2026-05-03 21:24 | -55.81432 | -80.54635 | 32483 ft | 506 kts | 220° |
| 2026-05-03 21:24 | -55.86656 | -80.62962 | 32477 ft | 506 kts | 220° |
| 2026-05-03 21:25 | -55.91917 | -80.71381 | 32464 ft | 504 kts | 221° |
| 2026-05-03 21:25 | -55.97131 | -80.79756 | 32467 ft | 506 kts | 220° |
| 2026-05-03 21:26 | -56.02337 | -80.88150 | 32344 ft | 505 kts | 220° |
| 2026-05-03 21:26 | -56.07577 | -80.96630 | 32347 ft | 505 kts | 220° |
| 2026-05-03 21:27 | -56.12763 | -81.05055 | 32345 ft | 506 kts | 220° |
| 2026-05-03 21:27 | -56.17995 | -81.13588 | 32345 ft | 505 kts | 220° |
| 2026-05-03 21:28 | -56.23176 | -81.22070 | 32346 ft | 505 kts | 220° |
| 2026-05-03 21:28 | -56.28358 | -81.30585 | 32345 ft | 504 kts | 221° |
| 2026-05-03 21:29 | -56.33540 | -81.39135 | 32347 ft | 504 kts | 221° |
| 2026-05-03 21:29 | -56.38693 | -81.47669 | 32347 ft | 505 kts | 221° |
| 2026-05-03 21:30 | -56.43868 | -81.56272 | 32347 ft | 504 kts | 221° |
| 2026-05-03 21:30 | -56.49000 | -81.64838 | 32347 ft | 504 kts | 221° |
| 2026-05-03 21:31 | -56.54173 | -81.73505 | 32345 ft | 504 kts | 221° |
| 2026-05-03 21:31 | -56.59296 | -81.82122 | 32344 ft | 503 kts | 221° |
| 2026-05-03 21:32 | -56.64424 | -81.90779 | 32346 ft | 503 kts | 221° |
| 2026-05-03 21:32 | -56.69561 | -81.99487 | 32346 ft | 504 kts | 221° |
| 2026-05-03 21:33 | -56.74668 | -82.08179 | 32346 ft | 503 kts | 221° |
| 2026-05-03 21:33 | -56.79773 | -82.16899 | 32346 ft | 504 kts | 221° |
| 2026-05-03 21:34 | -56.84914 | -82.25716 | 32347 ft | 504 kts | 221° |
| 2026-05-03 21:34 | -56.89957 | -82.34401 | 32347 ft | 503 kts | 221° |
| 2026-05-03 21:35 | -56.95079 | -82.43253 | 32347 ft | 503 kts | 221° |
| 2026-05-03 21:35 | -57.00178 | -82.52103 | 32348 ft | 503 kts | 221° |
| 2026-05-03 21:36 | -57.05249 | -82.60938 | 32348 ft | 503 kts | 221° |
| 2026-05-03 21:36 | -57.10300 | -82.69773 | 32345 ft | 503 kts | 222° |
| 2026-05-03 21:37 | -57.15363 | -82.78665 | 32344 ft | 503 kts | 222° |
| 2026-05-03 21:37 | -57.20443 | -82.87622 | 32345 ft | 503 kts | 222° |
| 2026-05-03 21:38 | -57.25480 | -82.96539 | 32345 ft | 503 kts | 222° |
| 2026-05-03 21:38 | -57.30521 | -83.05497 | 32340 ft | 496 kts | 223° |
| 2026-05-03 21:39 | -57.35490 | -83.14365 | 32347 ft | 497 kts | 223° |
| 2026-05-03 21:39 | -57.40455 | -83.23261 | 32345 ft | 498 kts | 223° |
| 2026-05-03 21:40 | -57.45435 | -83.32218 | 32346 ft | 498 kts | 223° |
| 2026-05-03 21:40 | -57.50413 | -83.41209 | 32346 ft | 498 kts | 223° |
| 2026-05-03 21:41 | -57.55370 | -83.50198 | 32346 ft | 498 kts | 223° |
| 2026-05-03 21:41 | -57.60339 | -83.59243 | 32347 ft | 498 kts | 223° |
| 2026-05-03 21:42 | -57.65469 | -83.67954 | 32347 ft | 498 kts | 221° |
| 2026-05-03 21:42 | -57.70655 | -83.76497 | 32346 ft | 498 kts | 221° |
| 2026-05-03 21:43 | -57.75853 | -83.85111 | 32345 ft | 497 kts | 221° |
| 2026-05-03 21:43 | -57.80998 | -83.93672 | 32344 ft | 494 kts | 221° |
| 2026-05-03 21:44 | -57.86150 | -84.02284 | 32347 ft | 495 kts | 222° |
| 2026-05-03 21:44 | -57.91283 | -84.10901 | 32346 ft | 495 kts | 222° |
| 2026-05-03 21:45 | -57.96404 | -84.19529 | 32347 ft | 495 kts | 222° |
| 2026-05-03 21:45 | -58.01516 | -84.28177 | 32347 ft | 495 kts | 222° |
| 2026-05-03 21:46 | -58.06644 | -84.36887 | 32347 ft | 494 kts | 222° |
| 2026-05-03 21:46 | -58.11739 | -84.45575 | 32345 ft | 495 kts | 222° |
| 2026-05-03 21:47 | -58.16874 | -84.54366 | 32345 ft | 495 kts | 222° |
| 2026-05-03 21:47 | -58.21970 | -84.63127 | 32345 ft | 495 kts | 222° |
| 2026-05-03 21:48 | -58.27051 | -84.71897 | 32345 ft | 494 kts | 223° |
| 2026-05-03 21:48 | -58.32119 | -84.80679 | 32345 ft | 493 kts | 223° |
| 2026-05-03 21:49 | -58.37174 | -84.89477 | 32345 ft | 491 kts | 223° |
| 2026-05-03 21:49 | -58.42228 | -84.98308 | 32345 ft | 490 kts | 224° |
| 2026-05-03 21:50 | -58.47224 | -85.07074 | 32345 ft | 488 kts | 224° |
| 2026-05-03 21:50 | -58.52232 | -85.15894 | 32346 ft | 489 kts | 224° |
| 2026-05-03 21:51 | -58.57216 | -85.24711 | 32345 ft | 489 kts | 224° |
| 2026-05-03 21:51 | -58.62206 | -85.33570 | 32346 ft | 490 kts | 224° |
| 2026-05-03 21:52 | -58.67176 | -85.42434 | 32345 ft | 489 kts | 224° |
| 2026-05-03 21:52 | -58.72180 | -85.51392 | 32346 ft | 489 kts | 224° |
| 2026-05-03 21:53 | -58.77144 | -85.60315 | 32346 ft | 489 kts | 224° |
| 2026-05-03 21:53 | -58.82142 | -85.69338 | 32347 ft | 487 kts | 225° |
| 2026-05-03 21:54 | -58.87068 | -85.78268 | 32346 ft | 486 kts | 225° |
| 2026-05-03 21:54 | -58.91993 | -85.87232 | 32347 ft | 487 kts | 225° |
| 2026-05-03 21:55 | -58.96905 | -85.96210 | 32347 ft | 486 kts | 225° |
| 2026-05-03 21:55 | -59.01839 | -86.05265 | 32347 ft | 486 kts | 225° |
| 2026-05-03 21:56 | -59.06749 | -86.14311 | 32347 ft | 486 kts | 225° |
| 2026-05-03 21:56 | -59.11636 | -86.23355 | 32344 ft | 486 kts | 225° |
| 2026-05-03 21:57 | -59.16532 | -86.32451 | 32345 ft | 487 kts | 225° |
| 2026-05-03 21:57 | -59.21450 | -86.41628 | 32344 ft | 487 kts | 225° |
| 2026-05-03 21:58 | -59.26334 | -86.50779 | 32344 ft | 487 kts | 226° |
| 2026-05-03 21:58 | -59.31212 | -86.59954 | 32341 ft | 484 kts | 226° |
| 2026-05-03 21:59 | -59.36054 | -86.69106 | 32347 ft | 484 kts | 227° |
| 2026-05-03 21:59 | -59.40877 | -86.78257 | 32345 ft | 484 kts | 227° |
| 2026-05-03 22:00 | -59.45726 | -86.87496 | 32345 ft | 484 kts | 227° |
| 2026-05-03 22:00 | -59.50548 | -86.96723 | 32346 ft | 484 kts | 227° |
| 2026-05-03 22:01 | -59.55354 | -87.05957 | 32345 ft | 484 kts | 227° |
| 2026-05-03 22:01 | -59.60191 | -87.15290 | 32345 ft | 484 kts | 227° |
| 2026-05-03 22:02 | -59.65022 | -87.24651 | 32346 ft | 484 kts | 227° |
| 2026-05-03 22:02 | -59.69825 | -87.33997 | 32347 ft | 486 kts | 227° |
| 2026-05-03 22:03 | -59.74627 | -87.43383 | 32345 ft | 485 kts | 227° |
| 2026-05-03 22:03 | -59.79427 | -87.52801 | 32344 ft | 481 kts | 227° |
| 2026-05-03 22:04 | -59.84156 | -87.62125 | 32346 ft | 479 kts | 227° |
| 2026-05-03 22:04 | -59.88897 | -87.71510 | 32348 ft | 481 kts | 228° |
| 2026-05-03 22:05 | -59.93626 | -87.80912 | 32348 ft | 481 kts | 228° |
| 2026-05-03 22:05 | -59.98382 | -87.90406 | 32348 ft | 482 kts | 228° |
| 2026-05-03 22:06 | -60.03104 | -87.99874 | 32348 ft | 481 kts | 228° |
| 2026-05-03 22:06 | -60.07828 | -88.09386 | 32348 ft | 481 kts | 228° |
| 2026-05-03 22:07 | -60.12532 | -88.18900 | 32343 ft | 481 kts | 228° |
| 2026-05-03 22:07 | -60.17237 | -88.28455 | 32342 ft | 482 kts | 228° |
| 2026-05-03 22:08 | -60.21968 | -88.38107 | 32343 ft | 483 kts | 228° |
| 2026-05-03 22:08 | -60.26655 | -88.47708 | 32347 ft | 482 kts | 229° |
| 2026-05-03 22:09 | -60.31343 | -88.57353 | 32342 ft | 479 kts | 229° |
| 2026-05-03 22:10 | -60.38330 | -88.71812 | 32394 ft | 479 kts | 229° |
| 2026-05-03 22:10 | -60.42977 | -88.81482 | 32401 ft | 481 kts | 229° |
| 2026-05-03 22:11 | -60.47646 | -88.91236 | 32399 ft | 481 kts | 229° |
| 2026-05-03 22:11 | -60.52278 | -89.00957 | 32400 ft | 480 kts | 229° |
| 2026-05-03 22:12 | -60.56934 | -89.10771 | 32399 ft | 480 kts | 229° |
| 2026-05-03 22:12 | -60.61579 | -89.20606 | 32399 ft | 480 kts | 229° |
| 2026-05-03 22:13 | -60.66180 | -89.30392 | 32399 ft | 481 kts | 229° |
| 2026-05-03 22:13 | -60.70809 | -89.40279 | 32399 ft | 481 kts | 229° |
| 2026-05-03 22:14 | -60.75412 | -89.50155 | 32399 ft | 481 kts | 229° |
| 2026-05-03 22:14 | -60.80019 | -89.60086 | 32399 ft | 480 kts | 229° |
| 2026-05-03 22:15 | -60.84604 | -89.70011 | 32402 ft | 480 kts | 230° |
| 2026-05-03 22:15 | -60.89186 | -89.79973 | 32401 ft | 480 kts | 230° |
| 2026-05-03 22:16 | -60.93766 | -89.89977 | 32402 ft | 481 kts | 230° |
| 2026-05-03 22:16 | -60.98340 | -90.00071 | 32401 ft | 480 kts | 231° |
| 2026-05-03 22:17 | -61.02774 | -90.10348 | 32402 ft | 480 kts | 232° |
| 2026-05-03 22:17 | -61.07178 | -90.20630 | 32401 ft | 480 kts | 232° |
| 2026-05-03 22:18 | -61.11756 | -90.30753 | 32397 ft | 480 kts | 229° |
| 2026-05-03 22:18 | -61.16358 | -90.40721 | 32397 ft | 480 kts | 229° |
| 2026-05-03 22:19 | -61.20976 | -90.50780 | 32397 ft | 480 kts | 229° |
| 2026-05-03 22:19 | -61.25592 | -90.60885 | 32396 ft | 480 kts | 229° |
| 2026-05-03 22:20 | -61.30183 | -90.70985 | 32400 ft | 482 kts | 230° |
| 2026-05-03 22:20 | -61.34766 | -90.81113 | 32399 ft | 481 kts | 230° |
| 2026-05-03 22:21 | -61.39359 | -90.91304 | 32400 ft | 481 kts | 230° |
| 2026-05-03 22:21 | -61.43930 | -91.01498 | 32399 ft | 481 kts | 230° |
| 2026-05-03 22:22 | -61.48484 | -91.11697 | 32399 ft | 481 kts | 230° |
| 2026-05-03 22:22 | -61.53045 | -91.21963 | 32399 ft | 481 kts | 230° |
| 2026-05-03 22:23 | -61.57599 | -91.32256 | 32398 ft | 480 kts | 230° |
| 2026-05-03 22:23 | -61.62130 | -91.42549 | 32399 ft | 480 kts | 230° |
| 2026-05-03 22:24 | -61.66647 | -91.52859 | 32399 ft | 480 kts | 230° |
| 2026-05-03 22:24 | -61.71174 | -91.63237 | 32399 ft | 480 kts | 230° |
| 2026-05-03 22:25 | -61.75673 | -91.73599 | 32401 ft | 479 kts | 231° |
| 2026-05-03 22:25 | -61.80192 | -91.84057 | 32402 ft | 483 kts | 231° |
| 2026-05-03 22:26 | -61.84737 | -91.94624 | 32400 ft | 484 kts | 231° |
| 2026-05-03 22:26 | -61.89238 | -92.05138 | 32401 ft | 483 kts | 231° |
| 2026-05-03 22:27 | -61.93773 | -92.15784 | 32401 ft | 483 kts | 231° |
| 2026-05-03 22:27 | -61.98254 | -92.26351 | 32401 ft | 483 kts | 231° |
| 2026-05-03 22:28 | -62.02743 | -92.36989 | 32401 ft | 482 kts | 231° |
| 2026-05-03 22:28 | -62.07218 | -92.47645 | 32401 ft | 482 kts | 231° |
| 2026-05-03 22:29 | -62.11677 | -92.58313 | 32396 ft | 482 kts | 231° |
| 2026-05-03 22:29 | -62.16161 | -92.69091 | 32399 ft | 482 kts | 232° |
| 2026-05-03 22:30 | -62.20605 | -92.79824 | 32398 ft | 482 kts | 232° |
| 2026-05-03 22:30 | -62.25046 | -92.90607 | 32398 ft | 483 kts | 232° |
| 2026-05-03 22:31 | -62.29470 | -93.01398 | 32546 ft | 483 kts | 232° |
| 2026-05-03 22:31 | -62.31714 | -93.06890 | 32696 ft | 484 kts | 232° |
| 2026-05-03 22:31 | -62.33929 | -93.12325 | 32843 ft | 484 kts | 232° |
| 2026-05-03 22:31 | -62.36140 | -93.17762 | 33004 ft | 483 kts | 232° |
| 2026-05-03 22:32 | -62.38361 | -93.23241 | 33153 ft | 483 kts | 232° |
| 2026-05-03 22:32 | -62.40572 | -93.28706 | 33289 ft | 483 kts | 232° |
| 2026-05-03 22:32 | -62.42780 | -93.34177 | 33357 ft | 485 kts | 232° |
| 2026-05-03 22:33 | -62.47202 | -93.45174 | 33397 ft | 484 kts | 232° |
| 2026-05-03 22:33 | -62.51592 | -93.56146 | 33398 ft | 483 kts | 232° |
| 2026-05-03 22:34 | -62.55987 | -93.67184 | 33400 ft | 483 kts | 233° |
| 2026-05-03 22:34 | -62.60354 | -93.78208 | 33401 ft | 482 kts | 233° |
| 2026-05-03 22:35 | -62.64735 | -93.89320 | 33399 ft | 480 kts | 233° |
| 2026-05-03 22:35 | -62.69065 | -94.00360 | 33401 ft | 481 kts | 233° |
| 2026-05-03 22:36 | -62.73407 | -94.11481 | 33400 ft | 481 kts | 233° |
| 2026-05-03 22:36 | -62.77717 | -94.22575 | 33400 ft | 482 kts | 233° |
| 2026-05-03 22:37 | -62.82081 | -94.33874 | 33401 ft | 483 kts | 232° |
| 2026-05-03 22:37 | -62.86374 | -94.45034 | 33400 ft | 479 kts | 232° |
| 2026-05-03 22:38 | -62.90674 | -94.56271 | 33401 ft | 481 kts | 232° |
| 2026-05-03 22:38 | -62.94975 | -94.67569 | 33402 ft | 480 kts | 233° |
| 2026-05-03 22:39 | -62.99224 | -94.78785 | 33404 ft | 480 kts | 233° |
| 2026-05-03 22:39 | -63.03478 | -94.90068 | 33401 ft | 475 kts | 233° |
| 2026-05-03 22:40 | -63.07666 | -95.01235 | 33400 ft | 472 kts | 233° |
| 2026-05-03 22:40 | -63.11847 | -95.12441 | 33398 ft | 473 kts | 233° |
| 2026-05-03 22:41 | -63.16035 | -95.23719 | 33397 ft | 473 kts | 233° |
| 2026-05-03 22:41 | -63.20201 | -95.34992 | 33397 ft | 472 kts | 233° |
| 2026-05-03 22:42 | -63.24327 | -95.46219 | 33397 ft | 472 kts | 233° |
| 2026-05-03 22:42 | -63.28491 | -95.57605 | 33399 ft | 474 kts | 233° |
| 2026-05-03 22:43 | -63.32631 | -95.68981 | 33399 ft | 474 kts | 234° |
| 2026-05-03 22:43 | -63.36790 | -95.80466 | 33398 ft | 474 kts | 234° |
| 2026-05-03 22:44 | -63.40918 | -95.91925 | 33399 ft | 475 kts | 234° |
| 2026-05-03 22:44 | -63.45038 | -96.03423 | 33399 ft | 475 kts | 234° |
| 2026-05-03 22:45 | -63.49163 | -96.14993 | 33399 ft | 475 kts | 234° |
| 2026-05-03 22:45 | -63.53283 | -96.26606 | 33399 ft | 475 kts | 235° |
| 2026-05-03 22:46 | -63.57389 | -96.38241 | 33401 ft | 478 kts | 235° |
| 2026-05-03 22:46 | -63.61499 | -96.49950 | 33398 ft | 477 kts | 235° |
| 2026-05-03 22:47 | -63.65590 | -96.61664 | 33399 ft | 477 kts | 235° |
| 2026-05-03 22:47 | -63.69696 | -96.73483 | 33401 ft | 476 kts | 236° |
| 2026-05-03 22:48 | -63.73772 | -96.85275 | 33402 ft | 479 kts | 236° |
| 2026-05-03 22:48 | -63.77860 | -96.97168 | 33400 ft | 480 kts | 236° |
| 2026-05-03 22:49 | -63.81937 | -97.09090 | 33401 ft | 479 kts | 236° |
| 2026-05-03 22:49 | -63.85746 | -97.20287 | 33401 ft | 479 kts | 236° |
| 2026-05-03 22:50 | -63.89809 | -97.32286 | 33400 ft | 481 kts | 236° |
| 2026-05-03 22:50 | -63.93884 | -97.44396 | 33402 ft | 484 kts | 236° |
| 2026-05-03 22:51 | -63.97964 | -97.56579 | 33401 ft | 482 kts | 236° |
| 2026-05-03 22:51 | -64.02027 | -97.68780 | 33405 ft | 483 kts | 237° |
| 2026-05-03 22:52 | -64.06079 | -97.81011 | 33403 ft | 483 kts | 237° |
| 2026-05-03 22:52 | -64.10142 | -97.93346 | 33404 ft | 484 kts | 237° |
| 2026-05-03 22:53 | -64.14180 | -98.05672 | 33397 ft | 483 kts | 237° |
| 2026-05-03 22:53 | -64.18179 | -98.17945 | 33397 ft | 484 kts | 237° |
| 2026-05-03 22:54 | -64.22205 | -98.30368 | 33395 ft | 485 kts | 237° |
| 2026-05-03 22:54 | -64.26230 | -98.42861 | 33396 ft | 486 kts | 237° |
| 2026-05-03 22:55 | -64.30249 | -98.55403 | 33396 ft | 486 kts | 237° |
| 2026-05-03 22:55 | -64.34270 | -98.68021 | 33399 ft | 486 kts | 238° |
| 2026-05-03 22:56 | -64.38248 | -98.80573 | 33396 ft | 487 kts | 238° |
| 2026-05-03 22:56 | -64.42255 | -98.93291 | 33399 ft | 489 kts | 238° |
| 2026-05-03 22:57 | -64.46258 | -99.06065 | 33398 ft | 488 kts | 238° |
| 2026-05-03 22:57 | -64.50217 | -99.18773 | 33399 ft | 488 kts | 238° |
| 2026-05-03 22:58 | -64.54198 | -99.31623 | 33398 ft | 489 kts | 238° |
| 2026-05-03 22:58 | -64.58178 | -99.44546 | 33399 ft | 490 kts | 238° |
| 2026-05-03 22:59 | -64.62119 | -99.57415 | 33399 ft | 489 kts | 238° |
| 2026-05-03 22:59 | -64.66071 | -99.70395 | 33402 ft | 489 kts | 239° |
| 2026-05-03 23:00 | -64.69994 | -99.83350 | 33401 ft | 487 kts | 239° |
| 2026-05-03 23:00 | -64.73895 | -99.96312 | 33402 ft | 487 kts | 239° |
| 2026-05-03 23:01 | -64.77629 | -100.09520 | 33405 ft | 489 kts | 242° |
| 2026-05-03 23:01 | -64.81471 | -100.22902 | 33401 ft | 492 kts | 240° |
| 2026-05-03 23:02 | -64.85367 | -100.36076 | 33401 ft | 490 kts | 239° |
| 2026-05-03 23:02 | -64.89271 | -100.49239 | 33403 ft | 491 kts | 239° |
| 2026-05-03 23:03 | -64.93162 | -100.62402 | 33402 ft | 491 kts | 239° |
| 2026-05-03 23:03 | -64.97049 | -100.75620 | 33404 ft | 490 kts | 240° |
| 2026-05-03 23:04 | -65.00934 | -100.88908 | 33403 ft | 487 kts | 240° |
| 2026-05-03 23:04 | -65.04767 | -101.02098 | 33405 ft | 488 kts | 240° |
| 2026-05-03 23:05 | -65.08595 | -101.15348 | 33404 ft | 488 kts | 240° |
| 2026-05-03 23:05 | -65.12440 | -101.28734 | 33393 ft | 488 kts | 240° |
| 2026-05-03 23:06 | -65.16248 | -101.42071 | 33396 ft | 490 kts | 240° |
| 2026-05-03 23:06 | -65.20080 | -101.55574 | 33395 ft | 489 kts | 240° |
| 2026-05-03 23:07 | -65.23864 | -101.68990 | 33398 ft | 489 kts | 241° |
| 2026-05-03 23:07 | -65.27650 | -101.82495 | 33399 ft | 490 kts | 241° |
| 2026-05-03 23:08 | -65.31437 | -101.96084 | 33397 ft | 490 kts | 241° |
| 2026-05-03 23:08 | -65.35200 | -102.09666 | 33398 ft | 490 kts | 241° |
| 2026-05-03 23:09 | -65.38968 | -102.23356 | 33398 ft | 490 kts | 241° |
| 2026-05-03 23:09 | -65.42716 | -102.37056 | 33399 ft | 491 kts | 241° |
| 2026-05-03 23:10 | -65.46447 | -102.50776 | 33398 ft | 491 kts | 241° |
| 2026-05-03 23:10 | -65.50184 | -102.64606 | 33399 ft | 491 kts | 241° |
| 2026-05-03 23:11 | -65.53861 | -102.78292 | 33398 ft | 490 kts | 242° |
| 2026-05-03 23:11 | -65.57581 | -102.92238 | 33401 ft | 492 kts | 242° |
| 2026-05-03 23:12 | -65.61297 | -103.06247 | 33400 ft | 492 kts | 242° |
| 2026-05-03 23:12 | -65.64948 | -103.20103 | 33401 ft | 492 kts | 242° |
| 2026-05-03 23:13 | -65.68630 | -103.34160 | 33402 ft | 495 kts | 242° |
| 2026-05-03 23:13 | -65.72336 | -103.48403 | 33400 ft | 496 kts | 242° |
| 2026-05-03 23:14 | -65.75981 | -103.62500 | 33403 ft | 494 kts | 242° |
| 2026-05-03 23:14 | -65.79617 | -103.76647 | 33401 ft | 489 kts | 243° |
| 2026-05-03 23:15 | -65.83237 | -103.90834 | 33406 ft | 495 kts | 243° |
| 2026-05-03 23:15 | -65.86855 | -104.05097 | 33402 ft | 493 kts | 243° |
| 2026-05-03 23:16 | -65.90473 | -104.19459 | 33404 ft | 493 kts | 243° |
| 2026-05-03 23:16 | -65.94041 | -104.33711 | 33404 ft | 496 kts | 243° |
| 2026-05-03 23:17 | -65.97643 | -104.48199 | 33404 ft | 497 kts | 243° |
| 2026-05-03 23:17 | -66.01221 | -104.62680 | 33404 ft | 496 kts | 243° |
| 2026-05-03 23:18 | -66.04787 | -104.77206 | 33405 ft | 495 kts | 244° |
| 2026-05-03 23:18 | -66.08362 | -104.91874 | 33408 ft | 499 kts | 244° |
| 2026-05-03 23:19 | -66.11905 | -105.06500 | 33392 ft | 498 kts | 244° |
| 2026-05-03 23:19 | -66.15446 | -105.21220 | 33396 ft | 498 kts | 244° |
| 2026-05-03 23:20 | -66.18986 | -105.36041 | 33397 ft | 499 kts | 244° |
| 2026-05-03 23:20 | -66.22501 | -105.50852 | 33395 ft | 499 kts | 244° |
| 2026-05-03 23:21 | -66.25988 | -105.65645 | 33399 ft | 498 kts | 245° |
| 2026-05-03 23:21 | -66.29470 | -105.80513 | 33394 ft | 493 kts | 245° |
| 2026-05-03 23:22 | -66.34624 | -106.02728 | 33397 ft | 496 kts | 245° |
| 2026-05-03 23:22 | -66.38065 | -106.17677 | 33398 ft | 495 kts | 245° |
| 2026-05-03 23:23 | -66.41495 | -106.32686 | 33398 ft | 497 kts | 245° |
| 2026-05-03 23:23 | -66.44904 | -106.47711 | 33398 ft | 498 kts | 245° |
| 2026-05-03 23:24 | -66.48306 | -106.62802 | 33399 ft | 497 kts | 245° |
| 2026-05-03 23:24 | -66.51676 | -106.77860 | 33398 ft | 497 kts | 246° |
| 2026-05-03 23:25 | -66.55038 | -106.92990 | 33401 ft | 499 kts | 246° |
| 2026-05-03 23:25 | -66.58416 | -107.08298 | 33400 ft | 498 kts | 246° |
| 2026-05-03 23:26 | -66.61759 | -107.23558 | 33401 ft | 498 kts | 246° |
| 2026-05-03 23:26 | -66.65101 | -107.38920 | 33403 ft | 501 kts | 246° |
| 2026-05-03 23:27 | -66.68434 | -107.54353 | 33401 ft | 500 kts | 246° |
| 2026-05-03 23:27 | -66.71744 | -107.69788 | 33403 ft | 500 kts | 246° |
| 2026-05-03 23:28 | -66.75048 | -107.85317 | 33404 ft | 501 kts | 246° |
| 2026-05-03 23:28 | -66.78325 | -108.00816 | 33398 ft | 496 kts | 246° |
| 2026-05-03 23:29 | -66.81553 | -108.16207 | 33405 ft | 496 kts | 247° |
| 2026-05-03 23:29 | -66.84798 | -108.31796 | 33402 ft | 498 kts | 247° |
| 2026-05-03 23:30 | -66.88026 | -108.47407 | 33403 ft | 499 kts | 247° |
| 2026-05-03 23:30 | -66.91235 | -108.63045 | 33404 ft | 498 kts | 247° |
| 2026-05-03 23:31 | -66.94411 | -108.78639 | 33403 ft | 498 kts | 248° |
| 2026-05-03 23:31 | -66.97604 | -108.94437 | 33406 ft | 500 kts | 248° |
| 2026-05-03 23:32 | -67.00769 | -109.10213 | 33405 ft | 499 kts | 248° |
| 2026-05-03 23:32 | -67.03936 | -109.26118 | 33406 ft | 499 kts | 248° |
| 2026-05-03 23:33 | -67.07069 | -109.41976 | 33407 ft | 501 kts | 248° |
| 2026-05-03 23:33 | -67.10214 | -109.58014 | 33405 ft | 500 kts | 248° |
| 2026-05-03 23:34 | -67.13309 | -109.73914 | 33395 ft | 499 kts | 249° |
| 2026-05-03 23:34 | -67.16418 | -109.90020 | 33397 ft | 502 kts | 249° |
| 2026-05-03 23:35 | -67.19556 | -110.06119 | 33395 ft | 502 kts | 248° |
| 2026-05-03 23:35 | -67.22737 | -110.22210 | 33396 ft | 502 kts | 248° |
| 2026-05-03 23:36 | -67.25889 | -110.38264 | 33401 ft | 503 kts | 247° |
| 2026-05-03 23:36 | -67.29028 | -110.54362 | 33395 ft | 498 kts | 248° |
| 2026-05-03 23:37 | -67.32131 | -110.70416 | 33399 ft | 499 kts | 248° |
| 2026-05-03 23:37 | -67.35326 | -110.86442 | 33399 ft | 501 kts | 246° |
| 2026-05-03 23:38 | -67.38593 | -111.02496 | 33464 ft | 502 kts | 247° |
| 2026-05-03 23:38 | -67.41836 | -111.18581 | 33398 ft | 501 kts | 247° |
| 2026-05-03 23:39 | -67.45047 | -111.34629 | 33400 ft | 502 kts | 247° |
| 2026-05-03 23:39 | -67.48273 | -111.50871 | 33498 ft | 502 kts | 247° |
| 2026-05-03 23:40 | -67.51460 | -111.67052 | 33636 ft | 502 kts | 248° |
| 2026-05-03 23:40 | -67.54632 | -111.83276 | 33696 ft | 502 kts | 248° |
| 2026-05-03 23:41 | -67.57810 | -111.99663 | 33697 ft | 502 kts | 248° |
| 2026-05-03 23:41 | -67.60944 | -112.15943 | 33698 ft | 502 kts | 248° |
| 2026-05-03 23:42 | -67.64065 | -112.32291 | 33698 ft | 503 kts | 248° |
| 2026-05-03 23:42 | -67.67192 | -112.48804 | 33698 ft | 503 kts | 248° |
| 2026-05-03 23:43 | -67.70300 | -112.65344 | 33699 ft | 503 kts | 249° |
| 2026-05-03 23:43 | -67.73376 | -112.81844 | 33698 ft | 503 kts | 249° |
| 2026-05-03 23:44 | -67.76460 | -112.98528 | 33702 ft | 501 kts | 248° |
| 2026-05-03 23:44 | -67.79470 | -113.14928 | 33700 ft | 497 kts | 249° |
| 2026-05-03 23:45 | -67.82470 | -113.31426 | 33700 ft | 500 kts | 248° |
| 2026-05-03 23:45 | -67.85484 | -113.48123 | 33700 ft | 500 kts | 248° |
| 2026-05-03 23:46 | -67.88464 | -113.64780 | 33701 ft | 499 kts | 248° |
| 2026-05-03 23:46 | -67.91420 | -113.81429 | 33700 ft | 499 kts | 249° |
| 2026-05-03 23:47 | -67.94360 | -113.98128 | 33702 ft | 500 kts | 249° |
| 2026-05-03 23:47 | -67.97307 | -114.15008 | 33702 ft | 499 kts | 249° |
| 2026-05-03 23:48 | -68.00220 | -114.31837 | 33701 ft | 500 kts | 249° |
| 2026-05-03 23:48 | -68.03107 | -114.48656 | 33702 ft | 501 kts | 249° |
| 2026-05-03 23:49 | -68.05997 | -114.65631 | 33703 ft | 500 kts | 250° |
| 2026-05-03 23:49 | -68.08874 | -114.82682 | 33702 ft | 500 kts | 250° |
| 2026-05-03 23:50 | -68.11240 | -114.96809 | 33692 ft | 501 kts | 250° |
| 2026-05-03 23:50 | -68.14548 | -115.16740 | 33693 ft | 501 kts | 250° |
| 2026-05-03 23:51 | -68.17367 | -115.33883 | 33693 ft | 502 kts | 250° |
| 2026-05-03 23:51 | -68.20161 | -115.51028 | 33693 ft | 502 kts | 250° |
| 2026-05-03 23:52 | -68.22947 | -115.68264 | 33694 ft | 502 kts | 251° |
| 2026-05-03 23:52 | -68.25726 | -115.85619 | 33694 ft | 502 kts | 251° |
| 2026-05-03 23:53 | -68.28471 | -116.02911 | 33694 ft | 503 kts | 251° |
| 2026-05-03 23:53 | -68.31200 | -116.20256 | 33695 ft | 502 kts | 251° |
| 2026-05-03 23:54 | -68.33916 | -116.37681 | 33696 ft | 503 kts | 251° |
| 2026-05-03 23:54 | -68.36623 | -116.55205 | 33695 ft | 503 kts | 251° |
| 2026-05-03 23:55 | -68.39299 | -116.72691 | 33695 ft | 502 kts | 252° |
| 2026-05-03 23:55 | -68.41956 | -116.90215 | 33697 ft | 503 kts | 252° |
| 2026-05-03 23:56 | -68.44607 | -117.07856 | 33696 ft | 503 kts | 252° |
| 2026-05-03 23:56 | -68.47231 | -117.25478 | 33697 ft | 503 kts | 252° |
| 2026-05-03 23:57 | -68.49847 | -117.43224 | 33697 ft | 503 kts | 252° |
| 2026-05-03 23:57 | -68.52442 | -117.60990 | 33697 ft | 503 kts | 252° |
| 2026-05-03 23:58 | -68.55009 | -117.78728 | 33696 ft | 502 kts | 252° |
| 2026-05-03 23:58 | -68.57564 | -117.96571 | 33698 ft | 503 kts | 252° |
| 2026-05-03 23:59 | -68.60093 | -118.14386 | 33698 ft | 503 kts | 252° |
| 2026-05-03 23:59 | -68.62605 | -118.32263 | 33698 ft | 503 kts | 252° |
| 2026-05-04 00:00 | -68.65108 | -118.50255 | 33699 ft | 503 kts | 252° |
| 2026-05-04 00:00 | -68.67596 | -118.68330 | 33700 ft | 509 kts | 252° |
| 2026-05-04 00:01 | -68.70083 | -118.86546 | 33697 ft | 510 kts | 252° |
| 2026-05-04 00:01 | -68.72561 | -119.04887 | 33698 ft | 509 kts | 252° |
| 2026-05-04 00:02 | -68.75007 | -119.23193 | 33699 ft | 509 kts | 252° |
| 2026-05-04 00:02 | -68.77421 | -119.41428 | 33696 ft | 505 kts | 253° |
| 2026-05-04 00:03 | -68.79820 | -119.59763 | 33701 ft | 506 kts | 253° |
| 2026-05-04 00:03 | -68.82194 | -119.78088 | 33699 ft | 505 kts | 254° |
| 2026-05-04 00:04 | -68.84540 | -119.96395 | 33700 ft | 505 kts | 254° |
| 2026-05-04 00:04 | -68.86871 | -120.14703 | 33700 ft | 505 kts | 254° |
| 2026-05-04 00:05 | -68.89201 | -120.33149 | 33701 ft | 505 kts | 254° |
| 2026-05-04 00:05 | -68.91507 | -120.51617 | 33701 ft | 505 kts | 254° |
| 2026-05-04 00:06 | -68.93777 | -120.69997 | 33701 ft | 505 kts | 255° |
| 2026-05-04 00:06 | -68.96040 | -120.88520 | 33701 ft | 505 kts | 255° |
| 2026-05-04 00:07 | -68.98279 | -121.07044 | 33701 ft | 505 kts | 255° |
| 2026-05-04 00:07 | -69.00504 | -121.25656 | 33702 ft | 505 kts | 255° |
| 2026-05-04 00:08 | -69.02701 | -121.44250 | 33702 ft | 505 kts | 255° |
| 2026-05-04 00:08 | -69.04875 | -121.62851 | 33703 ft | 505 kts | 255° |
| 2026-05-04 00:09 | -69.07042 | -121.81599 | 33702 ft | 504 kts | 256° |
| 2026-05-04 00:09 | -69.09176 | -122.00277 | 33702 ft | 504 kts | 256° |
| 2026-05-04 00:10 | -69.11286 | -122.18970 | 33692 ft | 504 kts | 256° |
| 2026-05-04 00:10 | -69.13390 | -122.37817 | 33693 ft | 503 kts | 256° |
| 2026-05-04 00:11 | -69.15453 | -122.56505 | 33694 ft | 503 kts | 256° |
| 2026-05-04 00:11 | -69.17512 | -122.75396 | 33693 ft | 503 kts | 257° |
| 2026-05-04 00:12 | -69.19524 | -122.94073 | 33693 ft | 502 kts | 257° |
| 2026-05-04 00:12 | -69.21539 | -123.13003 | 33694 ft | 502 kts | 257° |
| 2026-05-04 00:13 | -69.23518 | -123.31827 | 33695 ft | 502 kts | 257° |
| 2026-05-04 00:13 | -69.25487 | -123.50772 | 33696 ft | 501 kts | 257° |
| 2026-05-04 00:14 | -69.27410 | -123.69508 | 33694 ft | 498 kts | 258° |
| 2026-05-04 00:14 | -69.29324 | -123.88401 | 33694 ft | 498 kts | 258° |
| 2026-05-04 00:15 | -69.31210 | -124.07249 | 33695 ft | 498 kts | 258° |
| 2026-05-04 00:15 | -69.33076 | -124.26132 | 33695 ft | 498 kts | 258° |
| 2026-05-04 00:16 | -69.34908 | -124.44912 | 33695 ft | 496 kts | 258° |
| 2026-05-04 00:16 | -69.36732 | -124.63851 | 33696 ft | 496 kts | 258° |
| 2026-05-04 00:17 | -69.38528 | -124.82739 | 33696 ft | 495 kts | 259° |
| 2026-05-04 00:17 | -69.40293 | -125.01562 | 33696 ft | 494 kts | 259° |
| 2026-05-04 00:18 | -69.42051 | -125.20551 | 33696 ft | 495 kts | 259° |
| 2026-05-04 00:18 | -69.43778 | -125.39456 | 33696 ft | 494 kts | 259° |
| 2026-05-04 00:19 | -69.45488 | -125.58430 | 33697 ft | 495 kts | 259° |
| 2026-05-04 00:19 | -69.47089 | -125.77477 | 33696 ft | 493 kts | 262° |
| 2026-05-04 00:20 | -69.48536 | -125.96555 | 33696 ft | 492 kts | 262° |
| 2026-05-04 00:20 | -69.49953 | -126.15680 | 33697 ft | 492 kts | 262° |
| 2026-05-04 00:21 | -69.51354 | -126.34926 | 33697 ft | 492 kts | 262° |
| 2026-05-04 00:21 | -69.52717 | -126.53977 | 33697 ft | 491 kts | 262° |
| 2026-05-04 00:22 | -69.54071 | -126.73220 | 33697 ft | 491 kts | 263° |
| 2026-05-04 00:22 | -69.55388 | -126.92250 | 33696 ft | 489 kts | 263° |
| 2026-05-04 00:23 | -69.56690 | -127.11417 | 33698 ft | 490 kts | 263° |
| 2026-05-04 00:23 | -69.57970 | -127.30559 | 33699 ft | 489 kts | 263° |
| 2026-05-04 00:24 | -69.59228 | -127.49720 | 33697 ft | 487 kts | 263° |
| 2026-05-04 00:24 | -69.60455 | -127.68763 | 33699 ft | 488 kts | 264° |
| 2026-05-04 00:25 | -69.61672 | -127.87967 | 33697 ft | 487 kts | 264° |
| 2026-05-04 00:25 | -69.62863 | -128.07143 | 33698 ft | 487 kts | 264° |
| 2026-05-04 00:26 | -69.64025 | -128.26184 | 33698 ft | 487 kts | 264° |
| 2026-05-04 00:26 | -69.65179 | -128.45456 | 33699 ft | 488 kts | 264° |
| 2026-05-04 00:27 | -69.66309 | -128.64712 | 33698 ft | 488 kts | 264° |
| 2026-05-04 00:27 | -69.67413 | -128.83896 | 33699 ft | 486 kts | 265° |
| 2026-05-04 00:28 | -69.68497 | -129.03143 | 33699 ft | 485 kts | 265° |
| 2026-05-04 00:28 | -69.69559 | -129.22372 | 33699 ft | 486 kts | 265° |
| 2026-05-04 00:29 | -69.70596 | -129.41536 | 33696 ft | 483 kts | 265° |
| 2026-05-04 00:29 | -69.71606 | -129.60634 | 33700 ft | 483 kts | 265° |
| 2026-05-04 00:30 | -69.72604 | -129.79875 | 33699 ft | 483 kts | 266° |
| 2026-05-04 00:30 | -69.73572 | -129.98981 | 33699 ft | 482 kts | 266° |
| 2026-05-04 00:31 | -69.74522 | -130.18158 | 33699 ft | 482 kts | 266° |
| 2026-05-04 00:31 | -69.75451 | -130.37315 | 33699 ft | 480 kts | 266° |
| 2026-05-04 00:32 | -69.76350 | -130.56348 | 33700 ft | 479 kts | 266° |
| 2026-05-04 00:32 | -69.77232 | -130.75458 | 33700 ft | 479 kts | 268° |
| 2026-05-04 00:33 | -69.78518 | -131.04053 | 33700 ft | 478 kts | 267° |
| 2026-05-04 00:34 | -69.79390 | -131.23221 | 33700 ft | 478 kts | 267° |
| 2026-05-04 00:34 | -69.80233 | -131.42262 | 33701 ft | 479 kts | 267° |
| 2026-05-04 00:35 | -69.81062 | -131.61456 | 33699 ft | 479 kts | 267° |
| 2026-05-04 00:35 | -69.81864 | -131.80531 | 33699 ft | 478 kts | 268° |
| 2026-05-04 00:36 | -69.82652 | -131.99783 | 33701 ft | 479 kts | 268° |
| 2026-05-04 00:36 | -69.83412 | -132.18881 | 33700 ft | 479 kts | 268° |
| 2026-05-04 00:37 | -69.84157 | -132.38109 | 33700 ft | 478 kts | 268° |
| 2026-05-04 00:37 | -69.84875 | -132.57237 | 33700 ft | 478 kts | 268° |
| 2026-05-04 00:38 | -69.85577 | -132.76440 | 33700 ft | 477 kts | 269° |
| 2026-05-04 00:38 | -69.86254 | -132.95579 | 33700 ft | 475 kts | 269° |
| 2026-05-04 00:39 | -69.86912 | -133.14787 | 33701 ft | 476 kts | 269° |
| 2026-05-04 00:39 | -69.87547 | -133.33910 | 33701 ft | 476 kts | 269° |
| 2026-05-04 00:40 | -69.88158 | -133.52965 | 33700 ft | 475 kts | 269° |
| 2026-05-04 00:40 | -69.88753 | -133.72174 | 33701 ft | 475 kts | 270° |
| 2026-05-04 00:41 | -69.89323 | -133.91280 | 33699 ft | 474 kts | 269° |
| 2026-05-04 00:41 | -69.89874 | -134.10361 | 33701 ft | 474 kts | 269° |
| 2026-05-04 00:42 | -69.90406 | -134.29538 | 33700 ft | 474 kts | 269° |
| 2026-05-04 00:42 | -69.90915 | -134.48665 | 33700 ft | 473 kts | 269° |
| 2026-05-04 00:43 | -69.91403 | -134.67786 | 33701 ft | 474 kts | 270° |
| 2026-05-04 00:43 | -69.91870 | -134.86874 | 33700 ft | 473 kts | 270° |
| 2026-05-04 00:44 | -69.92317 | -135.06021 | 33700 ft | 473 kts | 270° |
| 2026-05-04 00:44 | -69.92743 | -135.25136 | 33700 ft | 473 kts | 270° |
| 2026-05-04 00:45 | -69.93147 | -135.44275 | 33699 ft | 472 kts | 270° |
| 2026-05-04 00:45 | -69.93533 | -135.63417 | 33700 ft | 473 kts | 270° |
| 2026-05-04 00:46 | -69.93895 | -135.82477 | 33700 ft | 472 kts | 270° |
| 2026-05-04 00:46 | -69.94239 | -136.01663 | 33700 ft | 472 kts | 270° |
| 2026-05-04 00:47 | -69.94560 | -136.20679 | 33699 ft | 472 kts | 270° |
| 2026-05-04 00:47 | -69.94859 | -136.39706 | 33698 ft | 471 kts | 269° |
| 2026-05-04 00:48 | -69.95142 | -136.58847 | 33699 ft | 471 kts | 270° |
| 2026-05-04 00:48 | -69.95403 | -136.78009 | 33699 ft | 471 kts | 270° |
| 2026-05-04 00:49 | -69.95643 | -136.97110 | 33699 ft | 470 kts | 270° |
| 2026-05-04 00:49 | -69.95861 | -137.16141 | 33699 ft | 471 kts | 270° |
| 2026-05-04 00:50 | -69.96059 | -137.35207 | 33698 ft | 471 kts | 270° |
| 2026-05-04 00:50 | -69.96237 | -137.54318 | 33698 ft | 471 kts | 270° |
| 2026-05-04 00:51 | -69.96396 | -137.73476 | 33699 ft | 470 kts | 271° |
| 2026-05-04 00:51 | -69.96532 | -137.92537 | 33699 ft | 470 kts | 270° |
| 2026-05-04 00:52 | -69.96649 | -138.11636 | 33699 ft | 470 kts | 270° |
| 2026-05-04 00:52 | -69.96744 | -138.30673 | 33698 ft | 470 kts | 270° |
| 2026-05-04 00:53 | -69.96820 | -138.49689 | 33697 ft | 468 kts | 270° |
| 2026-05-04 00:53 | -69.96876 | -138.68785 | 33699 ft | 469 kts | 271° |
| 2026-05-04 00:54 | -69.96909 | -138.87755 | 33698 ft | 468 kts | 271° |
| 2026-05-04 00:54 | -69.96925 | -139.06705 | 33698 ft | 467 kts | 271° |
| 2026-05-04 00:55 | -69.96918 | -139.25726 | 33698 ft | 468 kts | 271° |
| 2026-05-04 00:55 | -69.96892 | -139.44694 | 33697 ft | 467 kts | 270° |
| 2026-05-04 00:56 | -69.96847 | -139.63545 | 33697 ft | 467 kts | 270° |
| 2026-05-04 00:56 | -69.96780 | -139.82599 | 33697 ft | 467 kts | 271° |
| 2026-05-04 00:57 | -69.96658 | -140.01630 | 33695 ft | 467 kts | 274° |
| 2026-05-04 00:57 | -69.96030 | -140.20508 | 33697 ft | 467 kts | 276° |
| 2026-05-04 00:58 | -69.95280 | -140.39337 | 33696 ft | 466 kts | 277° |
| 2026-05-04 00:58 | -69.94480 | -140.58092 | 33651 ft | 467 kts | 277° |
| 2026-05-04 00:59 | -69.93651 | -140.76828 | 33514 ft | 467 kts | 278° |
| 2026-05-04 00:59 | -69.92802 | -140.95474 | 33380 ft | 464 kts | 278° |
| 2026-05-04 01:00 | -69.91930 | -141.14186 | 33374 ft | 465 kts | 278° |
| 2026-05-04 01:00 | -69.91040 | -141.32843 | 33373 ft | 464 kts | 278° |
| 2026-05-04 01:01 | -69.90140 | -141.51279 | 33372 ft | 463 kts | 278° |
| 2026-05-04 01:01 | -69.89214 | -141.69842 | 33373 ft | 463 kts | 278° |
| 2026-05-04 01:02 | -69.88262 | -141.88509 | 33373 ft | 463 kts | 278° |
| 2026-05-04 01:02 | -69.87302 | -142.06941 | 33373 ft | 463 kts | 278° |
| 2026-05-04 01:03 | -69.86317 | -142.25479 | 33372 ft | 463 kts | 278° |
| 2026-05-04 01:03 | -69.85316 | -142.43926 | 33372 ft | 463 kts | 278° |
| 2026-05-04 01:04 | -69.84300 | -142.62265 | 33372 ft | 463 kts | 278° |
| 2026-05-04 01:04 | -69.83250 | -142.80879 | 33373 ft | 463 kts | 279° |
| 2026-05-04 01:05 | -69.82193 | -142.99232 | 33373 ft | 463 kts | 279° |
| 2026-05-04 01:05 | -69.81116 | -143.17604 | 33372 ft | 463 kts | 279° |
| 2026-05-04 01:06 | -69.80015 | -143.36017 | 33371 ft | 462 kts | 279° |
| 2026-05-04 01:06 | -69.78893 | -143.54450 | 33372 ft | 462 kts | 279° |
| 2026-05-04 01:07 | -69.77761 | -143.72722 | 33373 ft | 463 kts | 280° |
| 2026-05-04 01:07 | -69.76605 | -143.91060 | 33373 ft | 463 kts | 280° |
| 2026-05-04 01:08 | -69.75435 | -144.09297 | 33372 ft | 463 kts | 280° |
| 2026-05-04 01:08 | -69.74245 | -144.27516 | 33370 ft | 461 kts | 279° |
| 2026-05-04 01:09 | -69.73030 | -144.45808 | 33372 ft | 463 kts | 279° |
| 2026-05-04 01:09 | -69.71797 | -144.64087 | 33371 ft | 463 kts | 279° |
| 2026-05-04 01:10 | -69.70547 | -144.82304 | 33372 ft | 463 kts | 280° |
| 2026-05-04 01:10 | -69.69282 | -145.00449 | 33372 ft | 463 kts | 280° |
| 2026-05-04 01:11 | -69.67991 | -145.18671 | 33372 ft | 463 kts | 280° |
| 2026-05-04 01:11 | -69.66687 | -145.36777 | 33371 ft | 463 kts | 280° |
| 2026-05-04 01:12 | -69.65357 | -145.54980 | 33371 ft | 463 kts | 280° |
| 2026-05-04 01:12 | -69.64017 | -145.73035 | 33373 ft | 463 kts | 281° |
| 2026-05-04 01:13 | -69.62658 | -145.91074 | 33372 ft | 462 kts | 281° |
| 2026-05-04 01:13 | -69.61277 | -146.09140 | 33372 ft | 462 kts | 281° |
| 2026-05-04 01:14 | -69.59877 | -146.27182 | 33372 ft | 462 kts | 281° |
| 2026-05-04 01:14 | -69.58467 | -146.45093 | 33371 ft | 462 kts | 281° |
| 2026-05-04 01:15 | -69.57034 | -146.63045 | 33371 ft | 462 kts | 281° |
| 2026-05-04 01:15 | -69.55576 | -146.81033 | 33373 ft | 462 kts | 282° |
| 2026-05-04 01:16 | -69.54108 | -146.98908 | 33372 ft | 462 kts | 282° |
| 2026-05-04 01:16 | -69.52628 | -147.16701 | 33372 ft | 462 kts | 282° |
| 2026-05-04 01:17 | -69.51115 | -147.34615 | 33372 ft | 462 kts | 282° |
| 2026-05-04 01:17 | -69.49588 | -147.52473 | 33371 ft | 462 kts | 282° |
| 2026-05-04 01:18 | -69.48055 | -147.70154 | 33373 ft | 462 kts | 282° |
| 2026-05-04 01:18 | -69.46488 | -147.87999 | 33373 ft | 462 kts | 282° |
| 2026-05-04 01:19 | -69.44910 | -148.05742 | 33372 ft | 462 kts | 282° |
| 2026-05-04 01:19 | -69.43312 | -148.23467 | 33372 ft | 462 kts | 282° |
| 2026-05-04 01:20 | -69.41695 | -148.41190 | 33372 ft | 462 kts | 282° |
| 2026-05-04 01:20 | -69.40059 | -148.58890 | 33371 ft | 462 kts | 282° |
| 2026-05-04 01:21 | -69.38407 | -148.76533 | 33374 ft | 462 kts | 283° |
| 2026-05-04 01:21 | -69.36738 | -148.94154 | 33373 ft | 462 kts | 283° |
| 2026-05-04 01:22 | -69.35058 | -149.11671 | 33373 ft | 462 kts | 283° |
| 2026-05-04 01:22 | -69.33349 | -149.29275 | 33372 ft | 462 kts | 283° |
| 2026-05-04 01:23 | -69.31621 | -149.46866 | 33372 ft | 462 kts | 283° |
| 2026-05-04 01:23 | -69.29882 | -149.64357 | 33372 ft | 462 kts | 283° |
| 2026-05-04 01:24 | -69.28127 | -149.81808 | 33374 ft | 462 kts | 284° |
| 2026-05-04 01:24 | -69.26353 | -149.99245 | 33373 ft | 462 kts | 284° |
| 2026-05-04 01:25 | -69.24559 | -150.16675 | 33374 ft | 462 kts | 284° |
| 2026-05-04 01:25 | -69.22749 | -150.34038 | 33369 ft | 454 kts | 283° |
| 2026-05-04 01:26 | -69.20957 | -150.51076 | 33374 ft | 456 kts | 283° |
| 2026-05-04 01:26 | -69.19128 | -150.68269 | 33372 ft | 457 kts | 284° |
| 2026-05-04 01:27 | -69.17286 | -150.85379 | 33374 ft | 456 kts | 284° |
| 2026-05-04 01:27 | -69.15437 | -151.02382 | 33374 ft | 456 kts | 284° |
| 2026-05-04 01:28 | -69.13565 | -151.19403 | 33373 ft | 456 kts | 284° |
| 2026-05-04 01:28 | -69.11667 | -151.36478 | 33373 ft | 456 kts | 284° |
| 2026-05-04 01:29 | -69.09765 | -151.53410 | 33373 ft | 456 kts | 284° |
| 2026-05-04 01:29 | -69.07846 | -151.70319 | 33375 ft | 457 kts | 285° |
| 2026-05-04 01:30 | -69.05898 | -151.87306 | 33375 ft | 457 kts | 285° |
| 2026-05-04 01:30 | -69.03941 | -152.04193 | 33374 ft | 457 kts | 285° |
| 2026-05-04 01:31 | -69.01963 | -152.21083 | 33374 ft | 457 kts | 285° |
| 2026-05-04 01:31 | -68.99962 | -152.38003 | 33373 ft | 457 kts | 285° |
| 2026-05-04 01:32 | -68.97952 | -152.54820 | 33373 ft | 457 kts | 285° |
| 2026-05-04 01:32 | -68.95937 | -152.71524 | 33376 ft | 457 kts | 286° |
| 2026-05-04 01:33 | -68.93892 | -152.88298 | 33375 ft | 458 kts | 286° |
| 2026-05-04 01:33 | -68.91834 | -153.05017 | 33375 ft | 457 kts | 286° |
| 2026-05-04 01:34 | -68.89743 | -153.21835 | 33373 ft | 457 kts | 286° |
| 2026-05-04 01:34 | -68.87657 | -153.38460 | 33371 ft | 458 kts | 286° |
| 2026-05-04 01:35 | -68.85544 | -153.55130 | 33329 ft | 459 kts | 286° |
| 2026-05-04 01:35 | -68.83413 | -153.71780 | 33291 ft | 458 kts | 287° |
| 2026-05-04 01:36 | -68.81256 | -153.88480 | 33292 ft | 460 kts | 287° |
| 2026-05-04 01:36 | -68.79085 | -154.05121 | 33290 ft | 460 kts | 287° |
| 2026-05-04 01:37 | -68.76897 | -154.21747 | 33290 ft | 460 kts | 287° |
| 2026-05-04 01:37 | -68.74692 | -154.38336 | 33290 ft | 461 kts | 287° |
| 2026-05-04 01:38 | -68.72473 | -154.54875 | 33288 ft | 460 kts | 287° |
| 2026-05-04 01:38 | -68.70238 | -154.71388 | 33292 ft | 461 kts | 288° |
| 2026-05-04 01:39 | -68.67979 | -154.87924 | 33291 ft | 461 kts | 288° |
| 2026-05-04 01:39 | -68.65711 | -155.04366 | 33291 ft | 461 kts | 288° |
| 2026-05-04 01:40 | -68.63430 | -155.20763 | 33290 ft | 461 kts | 288° |
| 2026-05-04 01:40 | -68.60953 | -155.37059 | 33291 ft | 462 kts | 290° |
| 2026-05-04 01:41 | -68.58289 | -155.53183 | 33289 ft | 463 kts | 291° |
| 2026-05-04 01:41 | -68.55591 | -155.69125 | 33291 ft | 463 kts | 292° |
| 2026-05-04 01:42 | -68.52858 | -155.85063 | 33292 ft | 463 kts | 292° |
| 2026-05-04 01:42 | -68.50116 | -156.00906 | 33291 ft | 463 kts | 292° |
| 2026-05-04 01:43 | -68.47338 | -156.16830 | 33291 ft | 463 kts | 292° |
| 2026-05-04 01:43 | -68.44566 | -156.32594 | 33291 ft | 463 kts | 292° |
| 2026-05-04 01:44 | -68.41763 | -156.48407 | 33290 ft | 463 kts | 292° |
| 2026-05-04 01:44 | -68.38939 | -156.64210 | 33290 ft | 463 kts | 292° |
| 2026-05-04 01:45 | -68.36128 | -156.79829 | 33293 ft | 464 kts | 293° |
| 2026-05-04 01:45 | -68.31845 | -157.03387 | 33292 ft | 464 kts | 293° |
| 2026-05-04 01:46 | -68.28976 | -157.19019 | 33292 ft | 464 kts | 293° |
| 2026-05-04 01:46 | -68.26092 | -157.34621 | 33292 ft | 465 kts | 293° |
| 2026-05-04 01:47 | -68.23191 | -157.50191 | 33292 ft | 466 kts | 293° |
| 2026-05-04 01:47 | -68.20245 | -157.65880 | 33290 ft | 467 kts | 294° |
| 2026-05-04 01:48 | -68.17301 | -157.81444 | 33293 ft | 467 kts | 294° |
| 2026-05-04 01:48 | -68.14334 | -157.97011 | 33293 ft | 467 kts | 294° |
| 2026-05-04 01:49 | -68.11361 | -158.12494 | 33293 ft | 467 kts | 294° |
| 2026-05-04 01:49 | -68.08366 | -158.27982 | 33293 ft | 467 kts | 294° |
| 2026-05-04 01:50 | -68.05363 | -158.43385 | 33292 ft | 467 kts | 294° |
| 2026-05-04 01:50 | -68.02347 | -158.58748 | 33292 ft | 467 kts | 294° |
| 2026-05-04 01:51 | -67.99313 | -158.74092 | 33295 ft | 467 kts | 295° |
| 2026-05-04 01:51 | -67.96272 | -158.89351 | 33293 ft | 466 kts | 295° |
| 2026-05-04 01:52 | -67.93208 | -159.04617 | 33319 ft | 466 kts | 295° |
| 2026-05-04 01:52 | -67.90147 | -159.19766 | 33321 ft | 467 kts | 295° |
| 2026-05-04 01:53 | -67.87052 | -159.34963 | 33315 ft | 465 kts | 295° |
| 2026-05-04 01:53 | -67.83965 | -159.50017 | 33316 ft | 465 kts | 295° |
| 2026-05-04 01:54 | -67.80861 | -159.65050 | 33315 ft | 465 kts | 296° |
| 2026-05-04 01:54 | -67.77728 | -159.80112 | 33320 ft | 465 kts | 295° |
| 2026-05-04 01:55 | -67.74617 | -159.94963 | 33318 ft | 464 kts | 295° |
| 2026-05-04 01:55 | -67.71481 | -160.09830 | 33317 ft | 464 kts | 295° |
| 2026-05-04 01:56 | -67.68314 | -160.24741 | 33317 ft | 464 kts | 295° |
| 2026-05-04 01:56 | -67.65157 | -160.39499 | 33316 ft | 463 kts | 295° |
| 2026-05-04 01:57 | -67.61998 | -160.54167 | 33316 ft | 463 kts | 295° |
| 2026-05-04 01:57 | -67.58804 | -160.68898 | 33318 ft | 464 kts | 296° |
| 2026-05-04 01:58 | -67.55594 | -160.83597 | 33318 ft | 464 kts | 296° |
| 2026-05-04 01:58 | -67.52365 | -160.98282 | 33319 ft | 464 kts | 296° |
| 2026-05-04 01:59 | -67.49155 | -161.12787 | 33318 ft | 464 kts | 296° |
| 2026-05-04 01:59 | -67.45894 | -161.27418 | 33318 ft | 464 kts | 296° |
| 2026-05-04 02:00 | -67.42660 | -161.41830 | 33317 ft | 462 kts | 296° |
| 2026-05-04 02:00 | -67.39391 | -161.56305 | 33317 ft | 463 kts | 296° |
| 2026-05-04 02:01 | -67.36116 | -161.70706 | 33320 ft | 463 kts | 297° |
| 2026-05-04 02:01 | -67.32836 | -161.85034 | 33319 ft | 462 kts | 297° |
| 2026-05-04 02:02 | -67.29525 | -161.99405 | 33320 ft | 462 kts | 297° |
| 2026-05-04 02:02 | -67.26212 | -162.13687 | 33319 ft | 462 kts | 297° |
| 2026-05-04 02:03 | -67.22897 | -162.27876 | 33320 ft | 462 kts | 296° |
| 2026-05-04 02:03 | -67.19577 | -162.42004 | 33318 ft | 459 kts | 296° |
| 2026-05-04 02:04 | -67.16267 | -162.56007 | 33319 ft | 460 kts | 296° |
| 2026-05-04 02:04 | -67.12826 | -162.70026 | 33322 ft | 462 kts | 300° |
| 2026-05-04 02:05 | -67.09183 | -162.83578 | 33323 ft | 462 kts | 299° |
| 2026-05-04 02:05 | -67.05508 | -162.97089 | 33322 ft | 461 kts | 299° |
| 2026-05-04 02:06 | -67.01810 | -163.10570 | 33322 ft | 461 kts | 300° |
| 2026-05-04 02:06 | -66.98107 | -163.23975 | 33321 ft | 461 kts | 300° |
| 2026-05-04 02:07 | -66.94403 | -163.37294 | 33320 ft | 459 kts | 299° |
| 2026-05-04 02:07 | -66.90706 | -163.50523 | 33321 ft | 460 kts | 299° |
| 2026-05-04 02:08 | -66.86987 | -163.63745 | 33312 ft | 460 kts | 299° |
| 2026-05-04 02:08 | -66.83234 | -163.77004 | 33318 ft | 461 kts | 300° |
| 2026-05-04 02:09 | -66.79495 | -163.90134 | 33316 ft | 458 kts | 300° |
| 2026-05-04 02:09 | -66.75728 | -164.03290 | 33317 ft | 459 kts | 300° |
| 2026-05-04 02:10 | -66.71976 | -164.16301 | 33313 ft | 456 kts | 299° |
| 2026-05-04 02:10 | -66.68235 | -164.29219 | 33317 ft | 456 kts | 300° |
| 2026-05-04 02:11 | -66.64473 | -164.42123 | 33315 ft | 455 kts | 300° |
| 2026-05-04 02:11 | -66.60725 | -164.54903 | 33315 ft | 456 kts | 300° |
| 2026-05-04 02:12 | -66.56932 | -164.67764 | 33317 ft | 456 kts | 300° |
| 2026-05-04 02:12 | -66.53152 | -164.80512 | 33319 ft | 457 kts | 301° |
| 2026-05-04 02:13 | -66.49354 | -164.93236 | 33319 ft | 456 kts | 301° |
| 2026-05-04 02:13 | -66.45525 | -165.05995 | 33319 ft | 456 kts | 301° |
| 2026-05-04 02:14 | -66.41716 | -165.18614 | 33318 ft | 456 kts | 301° |
| 2026-05-04 02:14 | -66.37882 | -165.31249 | 33317 ft | 457 kts | 301° |
| 2026-05-04 02:15 | -66.34022 | -165.43890 | 33317 ft | 458 kts | 301° |
| 2026-05-04 02:15 | -66.30162 | -165.56456 | 33392 ft | 456 kts | 301° |
| 2026-05-04 02:16 | -66.28214 | -165.62773 | 33539 ft | 456 kts | 301° |
| 2026-05-04 02:16 | -66.26293 | -165.68986 | 33713 ft | 457 kts | 302° |
| 2026-05-04 02:16 | -66.24344 | -165.75273 | 33896 ft | 457 kts | 302° |
| 2026-05-04 02:16 | -66.22406 | -165.81506 | 34083 ft | 454 kts | 302° |
| 2026-05-04 02:17 | -66.20470 | -165.87706 | 34308 ft | 451 kts | 302° |
| 2026-05-04 02:17 | -66.18555 | -165.93828 | 34503 ft | 452 kts | 302° |
| 2026-05-04 02:17 | -66.16620 | -166.00001 | 34681 ft | 451 kts | 302° |
| 2026-05-04 02:17 | -66.14711 | -166.06068 | 34855 ft | 450 kts | 302° |
| 2026-05-04 02:18 | -66.12763 | -166.12245 | 35032 ft | 450 kts | 302° |
| 2026-05-04 02:18 | -66.10870 | -166.18231 | 35201 ft | 449 kts | 302° |
| 2026-05-04 02:18 | -66.08939 | -166.24324 | 35312 ft | 450 kts | 302° |
| 2026-05-04 02:18 | -66.07008 | -166.30399 | 35318 ft | 451 kts | 302° |
| 2026-05-04 02:19 | -66.03130 | -166.42539 | 35317 ft | 449 kts | 302° |
| 2026-05-04 02:19 | -65.99264 | -166.54581 | 35318 ft | 449 kts | 302° |
| 2026-05-04 02:20 | -65.95374 | -166.66629 | 35318 ft | 449 kts | 303° |
| 2026-05-04 02:20 | -65.91479 | -166.78630 | 35322 ft | 450 kts | 303° |
| 2026-05-04 02:21 | -65.87561 | -166.90633 | 35317 ft | 449 kts | 303° |
| 2026-05-04 02:21 | -65.83649 | -167.02554 | 35317 ft | 449 kts | 303° |
| 2026-05-04 02:22 | -65.79746 | -167.14381 | 35317 ft | 449 kts | 303° |
| 2026-05-04 02:22 | -65.75804 | -167.26266 | 35316 ft | 449 kts | 304° |
| 2026-05-04 02:23 | -65.71872 | -167.38057 | 35314 ft | 447 kts | 304° |
| 2026-05-04 02:23 | -65.67958 | -167.49731 | 35316 ft | 446 kts | 304° |
| 2026-05-04 02:24 | -65.64000 | -167.61473 | 35315 ft | 446 kts | 304° |
| 2026-05-04 02:24 | -65.60078 | -167.73044 | 35321 ft | 447 kts | 305° |
| 2026-05-04 02:25 | -65.56107 | -167.84705 | 35319 ft | 447 kts | 305° |
| 2026-05-04 02:25 | -65.52165 | -167.96214 | 35319 ft | 447 kts | 305° |
| 2026-05-04 02:26 | -65.48191 | -168.07758 | 35318 ft | 447 kts | 305° |
| 2026-05-04 02:26 | -65.44214 | -168.19249 | 35318 ft | 447 kts | 305° |
| 2026-05-04 02:27 | -65.40214 | -168.30751 | 35317 ft | 447 kts | 305° |
| 2026-05-04 02:27 | -65.36227 | -168.42149 | 35316 ft | 448 kts | 305° |
| 2026-05-04 02:28 | -65.32208 | -168.53581 | 35316 ft | 447 kts | 305° |
| 2026-05-04 02:28 | -65.28195 | -168.64938 | 35316 ft | 448 kts | 305° |
| 2026-05-04 02:29 | -65.24161 | -168.76297 | 35322 ft | 448 kts | 306° |
| 2026-05-04 02:29 | -65.20153 | -168.87521 | 35317 ft | 441 kts | 306° |
| 2026-05-04 02:30 | -65.16138 | -168.98711 | 35328 ft | 443 kts | 306° |
| 2026-05-04 02:30 | -65.12141 | -169.09792 | 35459 ft | 443 kts | 306° |
| 2026-05-04 02:31 | -65.08126 | -169.20868 | 35596 ft | 443 kts | 306° |
| 2026-05-04 02:31 | -65.04081 | -169.31973 | 35734 ft | 442 kts | 306° |
| 2026-05-04 02:32 | -65.00076 | -169.42908 | 35869 ft | 442 kts | 306° |
| 2026-05-04 02:32 | -64.96030 | -169.53905 | 35910 ft | 443 kts | 306° |
| 2026-05-04 02:33 | -64.91968 | -169.64885 | 35910 ft | 442 kts | 306° |
| 2026-05-04 02:33 | -64.87924 | -169.75763 | 35914 ft | 443 kts | 307° |
| 2026-05-04 02:34 | -64.83855 | -169.86655 | 35913 ft | 443 kts | 307° |
| 2026-05-04 02:34 | -64.79756 | -169.97571 | 35913 ft | 443 kts | 307° |
| 2026-05-04 02:35 | -64.75674 | -170.08391 | 35915 ft | 443 kts | 307° |
| 2026-05-04 02:35 | -64.71609 | -170.19102 | 36071 ft | 439 kts | 307° |
| 2026-05-04 02:36 | -64.69576 | -170.24448 | 36189 ft | 439 kts | 307° |
| 2026-05-04 02:36 | -64.67548 | -170.29767 | 36314 ft | 441 kts | 307° |
| 2026-05-04 02:36 | -64.65519 | -170.35071 | 36467 ft | 440 kts | 307° |
| 2026-05-04 02:36 | -64.63470 | -170.40414 | 36624 ft | 440 kts | 307° |
| 2026-05-04 02:37 | -64.61421 | -170.45746 | 36795 ft | 440 kts | 306° |
| 2026-05-04 02:37 | -64.59387 | -170.51027 | 36963 ft | 440 kts | 306° |
| 2026-05-04 02:37 | -64.57343 | -170.56320 | 37129 ft | 439 kts | 306° |
| 2026-05-04 02:37 | -64.55283 | -170.61639 | 37297 ft | 439 kts | 306° |
| 2026-05-04 02:38 | -64.53264 | -170.66843 | 37469 ft | 438 kts | 307° |
| 2026-05-04 02:38 | -64.51201 | -170.72145 | 37648 ft | 439 kts | 307° |
| 2026-05-04 02:38 | -64.49155 | -170.77393 | 37830 ft | 439 kts | 307° |
| 2026-05-04 02:38 | -64.47098 | -170.82654 | 37917 ft | 439 kts | 307° |
| 2026-05-04 02:39 | -64.42992 | -170.93121 | 37914 ft | 437 kts | 307° |
| 2026-05-04 02:39 | -64.38886 | -171.03537 | 37913 ft | 438 kts | 307° |
| 2026-05-04 02:40 | -64.34793 | -171.13872 | 37912 ft | 438 kts | 307° |
| 2026-05-04 02:40 | -64.30674 | -171.24222 | 37912 ft | 438 kts | 307° |
| 2026-05-04 02:41 | -64.26537 | -171.34566 | 37911 ft | 437 kts | 307° |
| 2026-05-04 02:41 | -64.22405 | -171.44850 | 37910 ft | 435 kts | 307° |
| 2026-05-04 02:42 | -64.18308 | -171.55000 | 37910 ft | 435 kts | 307° |
| 2026-05-04 02:42 | -64.14185 | -171.65167 | 37909 ft | 435 kts | 308° |
| 2026-05-04 02:43 | -64.10039 | -171.75342 | 37916 ft | 436 kts | 308° |
| 2026-05-04 02:43 | -64.05895 | -171.85463 | 37914 ft | 435 kts | 308° |
| 2026-05-04 02:44 | -64.01746 | -171.95550 | 37915 ft | 435 kts | 308° |
| 2026-05-04 02:44 | -63.97597 | -172.05591 | 37914 ft | 436 kts | 308° |
| 2026-05-04 02:45 | -63.93425 | -172.15640 | 37913 ft | 435 kts | 308° |
| 2026-05-04 02:45 | -63.89241 | -172.25674 | 37911 ft | 435 kts | 308° |
| 2026-05-04 02:46 | -63.85058 | -172.35655 | 37910 ft | 436 kts | 308° |
| 2026-05-04 02:46 | -63.80870 | -172.45604 | 37909 ft | 436 kts | 308° |
| 2026-05-04 02:47 | -63.76675 | -172.55524 | 37909 ft | 436 kts | 308° |
| 2026-05-04 02:47 | -63.72487 | -172.65381 | 37908 ft | 435 kts | 308° |
| 2026-05-04 02:48 | -63.68283 | -172.75230 | 37915 ft | 436 kts | 308° |
| 2026-05-04 02:48 | -63.64059 | -172.85083 | 37914 ft | 437 kts | 308° |
| 2026-05-04 02:49 | -63.59832 | -172.94899 | 37913 ft | 436 kts | 308° |
| 2026-05-04 02:49 | -63.55599 | -173.04683 | 37912 ft | 436 kts | 308° |
| 2026-05-04 02:50 | -63.51360 | -173.14435 | 37912 ft | 436 kts | 308° |
| 2026-05-04 02:50 | -63.47120 | -173.24147 | 37911 ft | 436 kts | 308° |
| 2026-05-04 02:51 | -63.42876 | -173.33823 | 37911 ft | 437 kts | 308° |
| 2026-05-04 02:51 | -63.38589 | -173.43555 | 37910 ft | 437 kts | 308° |
| 2026-05-04 02:52 | -63.34139 | -173.52951 | 37913 ft | 440 kts | 312° |
| 2026-05-04 02:52 | -63.29529 | -173.61824 | 37909 ft | 441 kts | 313° |
| 2026-05-04 02:53 | -63.24815 | -173.70691 | 37917 ft | 442 kts | 314° |
| 2026-05-04 02:53 | -63.20116 | -173.79434 | 37914 ft | 440 kts | 314° |
| 2026-05-04 02:54 | -63.15400 | -173.88165 | 37914 ft | 440 kts | 314° |
| 2026-05-04 02:54 | -63.10700 | -173.96822 | 37915 ft | 440 kts | 314° |
| 2026-05-04 02:55 | -63.03651 | -174.09732 | 37913 ft | 440 kts | 314° |
| 2026-05-04 02:56 | -62.98934 | -174.18324 | 37913 ft | 440 kts | 314° |
| 2026-05-04 02:56 | -62.94218 | -174.26877 | 37914 ft | 439 kts | 314° |
| 2026-05-04 02:57 | -62.89497 | -174.35402 | 37911 ft | 437 kts | 314° |
| 2026-05-04 02:57 | -62.84813 | -174.43826 | 37909 ft | 438 kts | 314° |
| 2026-05-04 02:58 | -62.80074 | -174.52309 | 37908 ft | 438 kts | 314° |
| 2026-05-04 02:58 | -62.75368 | -174.60698 | 37908 ft | 438 kts | 314° |
| 2026-05-04 02:59 | -62.70652 | -174.69066 | 37914 ft | 436 kts | 314° |
| 2026-05-04 02:59 | -62.65948 | -174.77383 | 37915 ft | 436 kts | 314° |
| 2026-05-04 03:00 | -62.61246 | -174.85661 | 37914 ft | 436 kts | 314° |
| 2026-05-04 03:00 | -62.56540 | -174.93910 | 37913 ft | 436 kts | 314° |
| 2026-05-04 03:01 | -62.51808 | -175.02167 | 37912 ft | 435 kts | 314° |
| 2026-05-04 03:01 | -62.47080 | -175.10388 | 37912 ft | 435 kts | 314° |
| 2026-05-04 03:02 | -62.42344 | -175.18587 | 37912 ft | 435 kts | 314° |
| 2026-05-04 03:02 | -62.37630 | -175.26712 | 37912 ft | 435 kts | 314° |
| 2026-05-04 03:03 | -62.32905 | -175.34822 | 37910 ft | 434 kts | 314° |
| 2026-05-04 03:03 | -62.28154 | -175.42946 | 37910 ft | 434 kts | 314° |
| 2026-05-04 03:04 | -62.23441 | -175.50966 | 37909 ft | 434 kts | 313° |
| 2026-05-04 03:04 | -62.18703 | -175.58998 | 37908 ft | 433 kts | 313° |
| 2026-05-04 03:05 | -62.13971 | -175.66989 | 37914 ft | 434 kts | 314° |
| 2026-05-04 03:05 | -62.09233 | -175.74959 | 37917 ft | 435 kts | 314° |
| 2026-05-04 03:06 | -62.04472 | -175.82930 | 37915 ft | 434 kts | 314° |
| 2026-05-04 03:06 | -61.99713 | -175.90869 | 37916 ft | 434 kts | 314° |
| 2026-05-04 03:07 | -61.94970 | -175.98746 | 37915 ft | 434 kts | 314° |
| 2026-05-04 03:07 | -61.90211 | -176.06619 | 37914 ft | 434 kts | 314° |
| 2026-05-04 03:08 | -61.85420 | -176.14514 | 37910 ft | 434 kts | 314° |
| 2026-05-04 03:08 | -61.80662 | -176.22322 | 37910 ft | 434 kts | 314° |
| 2026-05-04 03:09 | -61.75877 | -176.30142 | 37909 ft | 434 kts | 314° |
| 2026-05-04 03:09 | -61.71116 | -176.37888 | 37907 ft | 432 kts | 313° |
| 2026-05-04 03:10 | -61.66334 | -176.45644 | 37908 ft | 432 kts | 313° |
| 2026-05-04 03:10 | -61.61568 | -176.53342 | 37907 ft | 432 kts | 313° |
| 2026-05-04 03:11 | -61.56781 | -176.61040 | 37907 ft | 432 kts | 313° |
| 2026-05-04 03:11 | -61.52019 | -176.68669 | 37960 ft | 432 kts | 314° |
| 2026-05-04 03:12 | -61.47216 | -176.76335 | 37997 ft | 434 kts | 314° |
| 2026-05-04 03:12 | -61.42419 | -176.83955 | 37995 ft | 431 kts | 314° |
| 2026-05-04 03:13 | -61.37636 | -176.91528 | 37996 ft | 432 kts | 314° |
| 2026-05-04 03:13 | -61.32840 | -176.99091 | 37995 ft | 432 kts | 314° |
| 2026-05-04 03:14 | -61.28030 | -177.06645 | 37994 ft | 432 kts | 314° |
| 2026-05-04 03:14 | -61.23235 | -177.14146 | 37997 ft | 431 kts | 314° |
| 2026-05-04 03:15 | -61.18485 | -177.21547 | 37993 ft | 428 kts | 314° |
| 2026-05-04 03:15 | -61.13695 | -177.28984 | 37993 ft | 428 kts | 313° |
| 2026-05-04 03:16 | -61.08930 | -177.36353 | 37991 ft | 427 kts | 313° |
| 2026-05-04 03:16 | -61.04188 | -177.43660 | 37991 ft | 428 kts | 313° |
| 2026-05-04 03:17 | -60.99400 | -177.51007 | 37990 ft | 427 kts | 313° |
| 2026-05-04 03:17 | -60.94647 | -177.58272 | 38006 ft | 427 kts | 313° |
| 2026-05-04 03:18 | -60.89877 | -177.65536 | 38017 ft | 428 kts | 314° |
| 2026-05-04 03:18 | -60.85081 | -177.72813 | 38023 ft | 429 kts | 314° |
| 2026-05-04 03:19 | -60.80268 | -177.80084 | 38021 ft | 427 kts | 314° |
| 2026-05-04 03:19 | -60.75478 | -177.87297 | 38022 ft | 427 kts | 314° |
| 2026-05-04 03:20 | -60.70674 | -177.94501 | 38024 ft | 430 kts | 314° |
| 2026-05-04 03:20 | -60.65848 | -178.01712 | 38019 ft | 430 kts | 314° |
| 2026-05-04 03:21 | -60.61021 | -178.08897 | 38020 ft | 429 kts | 314° |
| 2026-05-04 03:21 | -60.56181 | -178.16074 | 38019 ft | 430 kts | 314° |
| 2026-05-04 03:22 | -60.51340 | -178.23225 | 38018 ft | 430 kts | 314° |
| 2026-05-04 03:22 | -60.46505 | -178.30337 | 38018 ft | 430 kts | 313° |
| 2026-05-04 03:23 | -60.41655 | -178.37450 | 38017 ft | 429 kts | 313° |
| 2026-05-04 03:23 | -60.36804 | -178.44537 | 38016 ft | 429 kts | 313° |
| 2026-05-04 03:24 | -60.31953 | -178.51596 | 38016 ft | 430 kts | 313° |
| 2026-05-04 03:24 | -60.27114 | -178.58612 | 38015 ft | 430 kts | 313° |
| 2026-05-04 03:25 | -60.22115 | -178.65343 | 38016 ft | 430 kts | 316° |
| 2026-05-04 03:25 | -60.17081 | -178.71823 | 38028 ft | 429 kts | 316° |
| 2026-05-04 03:26 | -60.12035 | -178.78279 | 38027 ft | 427 kts | 316° |
| 2026-05-04 03:26 | -60.07031 | -178.84653 | 38025 ft | 426 kts | 316° |
| 2026-05-04 03:27 | -60.02036 | -178.90993 | 38024 ft | 426 kts | 316° |
| 2026-05-04 03:27 | -59.97033 | -178.97319 | 38024 ft | 426 kts | 316° |
| 2026-05-04 03:28 | -59.92021 | -179.03632 | 38023 ft | 426 kts | 316° |
| 2026-05-04 03:28 | -59.87010 | -179.09920 | 38018 ft | 426 kts | 316° |
| 2026-05-04 03:29 | -59.81965 | -179.16228 | 38018 ft | 426 kts | 316° |
| 2026-05-04 03:29 | -59.76951 | -179.22475 | 38017 ft | 426 kts | 316° |
| 2026-05-04 03:30 | -59.71936 | -179.28694 | 38018 ft | 419 kts | 316° |
| 2026-05-04 03:30 | -59.67059 | -179.34724 | 38016 ft | 413 kts | 315° |
| 2026-05-04 03:31 | -59.62144 | -179.40793 | 38017 ft | 416 kts | 316° |
| 2026-05-04 03:31 | -59.57222 | -179.46840 | 38014 ft | 416 kts | 316° |
| 2026-05-04 03:32 | -59.52325 | -179.52835 | 38030 ft | 417 kts | 316° |
| 2026-05-04 03:32 | -59.47348 | -179.58907 | 38027 ft | 418 kts | 316° |
| 2026-05-04 03:33 | -59.42434 | -179.64880 | 38026 ft | 417 kts | 316° |
| 2026-05-04 03:33 | -59.37464 | -179.70901 | 38026 ft | 418 kts | 316° |
| 2026-05-04 03:34 | -59.32539 | -179.76848 | 38026 ft | 417 kts | 317° |
| 2026-05-04 03:34 | -59.27598 | -179.82791 | 38024 ft | 416 kts | 317° |
| 2026-05-04 03:35 | -59.22677 | -179.88693 | 38023 ft | 418 kts | 316° |
| 2026-05-04 03:35 | -59.17713 | -179.94624 | 38022 ft | 418 kts | 316° |
| 2026-05-04 03:36 | -59.12729 | 179.99442 | 38022 ft | 418 kts | 316° |
| 2026-05-04 03:36 | -59.07770 | 179.93558 | 38130 ft | 417 kts | 316° |
| 2026-05-04 03:37 | -59.02796 | 179.87672 | 38267 ft | 419 kts | 316° |
| 2026-05-04 03:37 | -58.97831 | 179.81822 | 38402 ft | 419 kts | 316° |
| 2026-05-04 03:38 | -58.92841 | 179.75961 | 38424 ft | 420 kts | 317° |
| 2026-05-04 03:38 | -58.87858 | 179.70128 | 38422 ft | 420 kts | 317° |
| 2026-05-04 03:39 | -58.82818 | 179.64250 | 38420 ft | 420 kts | 317° |
| 2026-05-04 03:39 | -58.77841 | 179.58464 | 38419 ft | 420 kts | 317° |
| 2026-05-04 03:40 | -58.72813 | 179.52637 | 38413 ft | 423 kts | 317° |
| 2026-05-04 03:40 | -58.67742 | 179.46777 | 38418 ft | 428 kts | 317° |
| 2026-05-04 03:41 | -58.62643 | 179.40918 | 38416 ft | 425 kts | 317° |
| 2026-05-04 03:41 | -58.57578 | 179.35107 | 38417 ft | 426 kts | 317° |
| 2026-05-04 03:42 | -58.52490 | 179.29291 | 38431 ft | 428 kts | 317° |
| 2026-05-04 03:42 | -58.47364 | 179.23456 | 38430 ft | 426 kts | 317° |
| 2026-05-04 03:43 | -58.42286 | 179.17693 | 38429 ft | 425 kts | 317° |
| 2026-05-04 03:43 | -58.37198 | 179.11937 | 38429 ft | 426 kts | 317° |
| 2026-05-04 03:44 | -58.32113 | 179.06204 | 38428 ft | 426 kts | 317° |
| 2026-05-04 03:44 | -58.27015 | 179.00476 | 38427 ft | 426 kts | 317° |
| 2026-05-04 03:45 | -58.21882 | 178.94725 | 38425 ft | 431 kts | 317° |
| 2026-05-04 03:45 | -58.16670 | 178.88905 | 38426 ft | 436 kts | 318° |
| 2026-05-04 03:46 | -58.11457 | 178.83116 | 38425 ft | 433 kts | 317° |
| 2026-05-04 03:46 | -58.06277 | 178.77374 | 38426 ft | 434 kts | 317° |
| 2026-05-04 03:47 | -58.01048 | 178.71597 | 38424 ft | 433 kts | 318° |
| 2026-05-04 03:47 | -57.95868 | 178.65897 | 38425 ft | 432 kts | 318° |
| 2026-05-04 03:48 | -57.90675 | 178.60199 | 38424 ft | 433 kts | 318° |
| 2026-05-04 03:48 | -57.85462 | 178.54501 | 38418 ft | 432 kts | 318° |
| 2026-05-04 03:49 | -57.80241 | 178.48811 | 38418 ft | 433 kts | 318° |
| 2026-05-04 03:49 | -57.75045 | 178.43169 | 38417 ft | 433 kts | 318° |
| 2026-05-04 03:50 | -57.69805 | 178.37491 | 38424 ft | 441 kts | 317° |
| 2026-05-04 03:50 | -57.64462 | 178.31734 | 38430 ft | 441 kts | 319° |
| 2026-05-04 03:51 | -57.59166 | 178.26041 | 38429 ft | 441 kts | 319° |
| 2026-05-04 03:51 | -57.53836 | 178.20331 | 38428 ft | 440 kts | 319° |
| 2026-05-04 03:52 | -57.48558 | 178.14696 | 38429 ft | 441 kts | 319° |
| 2026-05-04 03:52 | -57.43235 | 178.09032 | 38428 ft | 441 kts | 319° |
| 2026-05-04 03:53 | -57.37912 | 178.03387 | 38428 ft | 441 kts | 319° |
| 2026-05-04 03:53 | -57.32571 | 177.97743 | 38427 ft | 440 kts | 319° |
| 2026-05-04 03:54 | -57.28099 | 177.93030 | 38427 ft | 441 kts | 319° |
| 2026-05-04 03:54 | -57.22781 | 177.87444 | 38424 ft | 442 kts | 319° |
| 2026-05-04 03:55 | -57.17414 | 177.81824 | 38426 ft | 444 kts | 319° |
| 2026-05-04 03:55 | -57.12035 | 177.76215 | 38425 ft | 443 kts | 319° |
| 2026-05-04 03:56 | -57.06697 | 177.70666 | 38422 ft | 439 kts | 319° |
| 2026-05-04 03:56 | -57.01372 | 177.65146 | 38426 ft | 440 kts | 319° |
| 2026-05-04 03:57 | -56.96041 | 177.59637 | 38424 ft | 440 kts | 319° |
| 2026-05-04 03:57 | -56.90714 | 177.54153 | 38424 ft | 440 kts | 319° |
| 2026-05-04 03:58 | -56.82694 | 177.45932 | 38417 ft | 440 kts | 319° |
| 2026-05-04 03:58 | -56.77352 | 177.40477 | 38416 ft | 440 kts | 319° |
| 2026-05-04 03:59 | -56.72005 | 177.35033 | 38415 ft | 439 kts | 319° |
| 2026-05-04 03:59 | -56.66653 | 177.29604 | 38430 ft | 442 kts | 320° |
| 2026-05-04 04:00 | -56.61287 | 177.24182 | 38428 ft | 441 kts | 320° |
| 2026-05-04 04:00 | -56.55922 | 177.18776 | 38429 ft | 441 kts | 320° |
| 2026-05-04 04:01 | -56.50570 | 177.13400 | 38428 ft | 441 kts | 320° |
| 2026-05-04 04:01 | -56.45178 | 177.08002 | 38428 ft | 441 kts | 320° |
| 2026-05-04 04:02 | -56.39824 | 177.02658 | 38427 ft | 441 kts | 320° |
| 2026-05-04 04:02 | -56.34434 | 176.97298 | 38427 ft | 441 kts | 320° |
| 2026-05-04 04:03 | -56.29053 | 176.91963 | 38426 ft | 441 kts | 320° |
| 2026-05-04 04:03 | -56.23727 | 176.86699 | 38424 ft | 441 kts | 320° |
| 2026-05-04 04:04 | -56.18303 | 176.81354 | 38426 ft | 444 kts | 320° |
| 2026-05-04 04:04 | -56.12894 | 176.76047 | 38425 ft | 443 kts | 320° |
| 2026-05-04 04:05 | -56.07492 | 176.70767 | 38421 ft | 438 kts | 319° |
| 2026-05-04 04:05 | -56.02128 | 176.65529 | 38426 ft | 437 kts | 319° |
| 2026-05-04 04:06 | -55.96761 | 176.60306 | 38424 ft | 439 kts | 319° |
| 2026-05-04 04:06 | -55.91431 | 176.55141 | 38423 ft | 438 kts | 319° |
| 2026-05-04 04:07 | -55.86069 | 176.49959 | 38417 ft | 438 kts | 319° |
| 2026-05-04 04:07 | -55.80718 | 176.44804 | 38417 ft | 438 kts | 319° |
| 2026-05-04 04:08 | -55.75332 | 176.39633 | 38416 ft | 438 kts | 319° |
| 2026-05-04 04:08 | -55.69956 | 176.34476 | 38425 ft | 447 kts | 321° |
| 2026-05-04 04:09 | -55.64419 | 176.29201 | 38427 ft | 448 kts | 321° |
| 2026-05-04 04:09 | -55.58944 | 176.24091 | 38429 ft | 448 kts | 322° |
| 2026-05-04 04:10 | -55.56289 | 176.21327 | 38427 ft | 432 kts | 314° |
| 2026-05-04 04:10 | -55.53951 | 176.18162 | 38434 ft | 427 kts | 311° |
| 2026-05-04 04:10 | -55.49092 | 176.11891 | 38429 ft | 432 kts | 314° |
| 2026-05-04 04:11 | -55.44156 | 176.05812 | 38427 ft | 433 kts | 314° |
| 2026-05-04 04:11 | -55.39212 | 175.99817 | 38427 ft | 433 kts | 314° |
| 2026-05-04 04:12 | -55.34224 | 175.93811 | 38426 ft | 433 kts | 314° |
| 2026-05-04 04:12 | -55.29266 | 175.87865 | 38426 ft | 433 kts | 314° |
| 2026-05-04 04:13 | -55.24295 | 175.81924 | 38425 ft | 433 kts | 314° |
| 2026-05-04 04:13 | -55.19285 | 175.75964 | 38427 ft | 434 kts | 313° |
| 2026-05-04 04:14 | -55.14302 | 175.70041 | 38426 ft | 433 kts | 313° |
| 2026-05-04 04:14 | -55.09297 | 175.64113 | 38424 ft | 434 kts | 313° |
| 2026-05-04 04:15 | -55.04327 | 175.58249 | 38424 ft | 434 kts | 313° |
| 2026-05-04 04:15 | -54.99292 | 175.52324 | 38423 ft | 434 kts | 313° |
| 2026-05-04 04:16 | -54.94304 | 175.46472 | 38423 ft | 434 kts | 313° |
| 2026-05-04 04:16 | -54.89267 | 175.40582 | 38419 ft | 434 kts | 313° |
| 2026-05-04 04:17 | -54.84262 | 175.34747 | 38414 ft | 434 kts | 314° |
| 2026-05-04 04:17 | -54.79254 | 175.28923 | 38429 ft | 436 kts | 314° |
| 2026-05-04 04:18 | -54.74210 | 175.23080 | 38422 ft | 437 kts | 314° |
| 2026-05-04 04:18 | -54.69129 | 175.17207 | 38427 ft | 441 kts | 314° |
| 2026-05-04 04:19 | -54.64004 | 175.11310 | 38426 ft | 439 kts | 314° |
| 2026-05-04 04:19 | -54.58951 | 175.05505 | 38427 ft | 439 kts | 314° |
| 2026-05-04 04:20 | -54.53848 | 174.99664 | 38426 ft | 439 kts | 314° |
| 2026-05-04 04:20 | -54.48750 | 174.93848 | 38425 ft | 439 kts | 314° |
| 2026-05-04 04:21 | -54.43644 | 174.88037 | 38425 ft | 439 kts | 314° |
| 2026-05-04 04:21 | -54.38583 | 174.82297 | 38425 ft | 439 kts | 314° |
| 2026-05-04 04:22 | -54.33463 | 174.76506 | 38424 ft | 439 kts | 314° |
| 2026-05-04 04:22 | -54.28372 | 174.70773 | 38419 ft | 433 kts | 313° |
| 2026-05-04 04:23 | -54.23333 | 174.65102 | 38421 ft | 434 kts | 314° |
| 2026-05-04 04:23 | -54.18248 | 174.59387 | 38427 ft | 444 kts | 315° |
| 2026-05-04 04:24 | -54.13077 | 174.53622 | 38420 ft | 440 kts | 315° |
| 2026-05-04 04:24 | -54.07956 | 174.47917 | 38423 ft | 441 kts | 315° |
| 2026-05-04 04:25 | -54.02826 | 174.42217 | 38420 ft | 442 kts | 315° |
| 2026-05-04 04:25 | -53.97624 | 174.36452 | 38423 ft | 446 kts | 316° |
| 2026-05-04 04:26 | -53.92435 | 174.30728 | 38436 ft | 446 kts | 316° |
| 2026-05-04 04:26 | -53.87221 | 174.24992 | 38425 ft | 446 kts | 316° |
| 2026-05-04 04:27 | -53.81981 | 174.19241 | 38433 ft | 453 kts | 315° |
| 2026-05-04 04:27 | -53.76675 | 174.13438 | 38423 ft | 450 kts | 315° |
| 2026-05-04 04:28 | -53.71420 | 174.07695 | 38428 ft | 456 kts | 316° |
| 2026-05-04 04:28 | -53.66019 | 174.01825 | 38423 ft | 460 kts | 316° |
| 2026-05-04 04:29 | -53.60689 | 173.96053 | 38424 ft | 457 kts | 316° |
| 2026-05-04 04:29 | -53.55334 | 173.90263 | 38425 ft | 458 kts | 316° |
| 2026-05-04 04:30 | -53.49943 | 173.84456 | 38424 ft | 458 kts | 316° |
| 2026-05-04 04:30 | -53.44582 | 173.78699 | 38424 ft | 458 kts | 316° |
| 2026-05-04 04:31 | -53.39247 | 173.72983 | 38429 ft | 456 kts | 316° |
| 2026-05-04 04:31 | -53.33943 | 173.67320 | 38422 ft | 448 kts | 317° |
| 2026-05-04 04:32 | -53.28637 | 173.61670 | 38425 ft | 452 kts | 317° |
| 2026-05-04 04:32 | -53.23345 | 173.56056 | 38421 ft | 452 kts | 317° |
| 2026-05-04 04:33 | -53.18036 | 173.50442 | 38421 ft | 450 kts | 316° |
| 2026-05-04 04:33 | -53.12735 | 173.44844 | 38423 ft | 451 kts | 316° |
| 2026-05-04 04:34 | -53.07419 | 173.39252 | 38422 ft | 451 kts | 316° |
| 2026-05-04 04:34 | -53.02117 | 173.33691 | 38429 ft | 451 kts | 317° |
| 2026-05-04 04:35 | -52.96809 | 173.28140 | 38435 ft | 453 kts | 317° |
| 2026-05-04 04:35 | -52.91460 | 173.22566 | 38435 ft | 452 kts | 317° |
| 2026-05-04 04:36 | -52.86172 | 173.17067 | 38425 ft | 452 kts | 317° |
| 2026-05-04 04:36 | -52.80830 | 173.11528 | 38425 ft | 452 kts | 317° |
| 2026-05-04 04:37 | -52.70154 | 173.00502 | 38426 ft | 456 kts | 318° |
| 2026-05-04 04:38 | -52.64758 | 172.94961 | 38424 ft | 458 kts | 318° |
| 2026-05-04 04:38 | -52.59361 | 172.89438 | 38424 ft | 456 kts | 318° |
| 2026-05-04 04:39 | -52.53974 | 172.83934 | 38424 ft | 457 kts | 318° |
| 2026-05-04 04:39 | -52.48580 | 172.78441 | 38424 ft | 457 kts | 318° |
| 2026-05-04 04:40 | -52.43147 | 172.72926 | 38419 ft | 458 kts | 317° |
| 2026-05-04 04:40 | -52.37706 | 172.67413 | 38424 ft | 464 kts | 317° |
| 2026-05-04 04:41 | -52.32222 | 172.61881 | 38422 ft | 461 kts | 317° |
| 2026-05-04 04:41 | -52.26769 | 172.56390 | 38424 ft | 462 kts | 317° |
| 2026-05-04 04:42 | -52.21271 | 172.50865 | 38425 ft | 466 kts | 319° |
| 2026-05-04 04:42 | -52.15698 | 172.45288 | 38424 ft | 469 kts | 319° |
| 2026-05-04 04:43 | -52.10137 | 172.39748 | 38423 ft | 467 kts | 319° |
| 2026-05-04 04:43 | -52.04613 | 172.34251 | 38426 ft | 468 kts | 320° |
| 2026-05-04 04:44 | -51.99044 | 172.28729 | 38434 ft | 469 kts | 320° |
| 2026-05-04 04:44 | -51.93484 | 172.23233 | 38431 ft | 469 kts | 320° |
| 2026-05-04 04:45 | -51.87879 | 172.17703 | 38424 ft | 473 kts | 320° |
| 2026-05-04 04:47 | -51.68306 | 171.98528 | 38421 ft | 465 kts | 322° |
| 2026-05-04 04:47 | -51.62750 | 171.93123 | 38426 ft | 469 kts | 322° |
| 2026-05-04 04:48 | -51.57137 | 171.87680 | 38424 ft | 468 kts | 322° |
| 2026-05-04 04:49 | -51.43198 | 171.74226 | 38425 ft | 468 kts | 322° |
| 2026-05-04 04:49 | -51.37648 | 171.68895 | 38422 ft | 463 kts | 322° |
| 2026-05-04 04:50 | -51.32097 | 171.63577 | 38425 ft | 465 kts | 322° |
| 2026-05-04 04:50 | -51.26573 | 171.58304 | 38424 ft | 465 kts | 322° |
| 2026-05-04 04:51 | -51.21007 | 171.52998 | 38425 ft | 461 kts | 323° |
| 2026-05-04 04:51 | -51.15525 | 171.47798 | 38424 ft | 458 kts | 323° |
| 2026-05-04 04:52 | -51.10061 | 171.42622 | 38424 ft | 460 kts | 323° |
| 2026-05-04 04:52 | -51.04544 | 171.37413 | 38423 ft | 459 kts | 323° |
| 2026-05-04 04:53 | -50.99177 | 171.32359 | 38432 ft | 460 kts | 324° |
| 2026-05-04 04:53 | -50.94065 | 171.26492 | 38438 ft | 452 kts | 313° |
| 2026-05-04 04:54 | -50.89339 | 171.19836 | 38429 ft | 456 kts | 313° |
| 2026-05-04 04:54 | -50.84555 | 171.13184 | 38425 ft | 458 kts | 313° |
| 2026-05-04 04:55 | -50.79765 | 171.06558 | 38425 ft | 456 kts | 313° |
| 2026-05-04 04:55 | -50.74986 | 170.99971 | 38425 ft | 457 kts | 313° |
| 2026-05-04 04:56 | -50.70181 | 170.93359 | 38426 ft | 459 kts | 314° |
| 2026-05-04 04:56 | -50.65346 | 170.86739 | 38424 ft | 460 kts | 314° |
| 2026-05-04 04:57 | -50.60511 | 170.80135 | 38425 ft | 459 kts | 314° |
| 2026-05-04 04:57 | -50.55675 | 170.73544 | 38426 ft | 459 kts | 314° |
| 2026-05-04 04:58 | -50.50925 | 170.67090 | 38421 ft | 448 kts | 315° |
| 2026-05-04 04:58 | -50.46326 | 170.60857 | 38426 ft | 448 kts | 315° |
| 2026-05-04 04:59 | -50.41827 | 170.54774 | 38423 ft | 450 kts | 315° |
| 2026-05-04 04:59 | -50.37100 | 170.48404 | 38423 ft | 449 kts | 315° |
| 2026-05-04 05:00 | -50.32354 | 170.42024 | 38422 ft | 449 kts | 315° |
| 2026-05-04 05:01 | -50.25225 | 170.32472 | 38429 ft | 450 kts | 315° |
| 2026-05-04 05:01 | -50.20421 | 170.26050 | 38432 ft | 460 kts | 316° |
| 2026-05-04 05:02 | -50.15545 | 170.19562 | 38424 ft | 461 kts | 317° |
| 2026-05-04 05:02 | -50.10647 | 170.13062 | 38427 ft | 459 kts | 317° |
| 2026-05-04 05:03 | -50.05787 | 170.06627 | 38426 ft | 458 kts | 317° |
| 2026-05-04 05:04 | -49.96058 | 169.93797 | 38426 ft | 458 kts | 317° |
| 2026-05-04 05:04 | -49.91192 | 169.87407 | 38426 ft | 458 kts | 317° |
| 2026-05-04 05:06 | -49.71764 | 169.62062 | 38421 ft | 455 kts | 317° |
| 2026-05-04 05:07 | -49.66874 | 169.55728 | 38427 ft | 463 kts | 318° |
| 2026-05-04 05:07 | -49.61919 | 169.49330 | 38423 ft | 459 kts | 318° |
| 2026-05-04 05:09 | -49.39786 | 169.20950 | 38426 ft | 457 kts | 318° |
| 2026-05-04 05:10 | -49.34909 | 169.14741 | 38428 ft | 456 kts | 318° |
| 2026-05-04 05:10 | -49.30032 | 169.08550 | 38427 ft | 457 kts | 318° |
| 2026-05-04 05:11 | -49.25132 | 169.02345 | 38426 ft | 457 kts | 318° |
| 2026-05-04 05:11 | -49.20217 | 168.96137 | 38429 ft | 461 kts | 319° |
| 2026-05-04 05:12 | -49.15315 | 168.89810 | 38424 ft | 459 kts | 315° |
| 2026-05-04 05:12 | -49.10654 | 168.83176 | 38425 ft | 459 kts | 315° |
| 2026-05-04 05:13 | -49.05955 | 168.76540 | 38425 ft | 459 kts | 316° |
| 2026-05-04 05:13 | -49.01283 | 168.69969 | 38422 ft | 455 kts | 315° |
| 2026-05-04 05:14 | -48.96643 | 168.63458 | 38425 ft | 454 kts | 315° |
| 2026-05-04 05:14 | -48.91990 | 168.56947 | 38424 ft | 455 kts | 315° |
| 2026-05-04 05:15 | -48.87436 | 168.50594 | 38425 ft | 455 kts | 315° |
| 2026-05-04 05:15 | -48.82767 | 168.44096 | 38424 ft | 455 kts | 315° |
| 2026-05-04 05:16 | -48.78131 | 168.37663 | 38424 ft | 455 kts | 315° |
| 2026-05-04 05:16 | -48.73442 | 168.31171 | 38425 ft | 456 kts | 316° |
| 2026-05-04 05:17 | -48.68733 | 168.24669 | 38428 ft | 461 kts | 316° |
| 2026-05-04 05:17 | -48.63980 | 168.18129 | 38424 ft | 459 kts | 315° |
| 2026-05-04 05:18 | -48.59255 | 168.11636 | 38427 ft | 462 kts | 315° |
| 2026-05-04 05:18 | -48.54489 | 168.05109 | 38426 ft | 460 kts | 315° |
| 2026-05-04 05:19 | -48.49750 | 167.98634 | 38426 ft | 461 kts | 315° |
| 2026-05-04 05:19 | -48.44988 | 167.92148 | 38426 ft | 461 kts | 315° |
| 2026-05-04 05:20 | -48.40242 | 167.85700 | 38426 ft | 461 kts | 315° |
| 2026-05-04 05:20 | -48.35481 | 167.79245 | 38425 ft | 461 kts | 315° |
| 2026-05-04 05:21 | -48.30704 | 167.72789 | 38425 ft | 461 kts | 315° |
| 2026-05-04 05:21 | -48.25927 | 167.66347 | 38425 ft | 461 kts | 315° |
| 2026-05-04 05:22 | -48.21148 | 167.59923 | 38425 ft | 462 kts | 315° |
| 2026-05-04 05:22 | -48.16351 | 167.53488 | 38424 ft | 462 kts | 315° |
| 2026-05-04 05:23 | -48.11581 | 167.47108 | 38424 ft | 462 kts | 315° |
| 2026-05-04 05:23 | -48.06772 | 167.40692 | 38424 ft | 462 kts | 315° |
| 2026-05-04 05:24 | -48.01965 | 167.34294 | 38425 ft | 462 kts | 316° |
| 2026-05-04 05:24 | -47.97173 | 167.27936 | 38428 ft | 463 kts | 316° |
| 2026-05-04 05:25 | -47.92319 | 167.21509 | 38429 ft | 461 kts | 316° |
| 2026-05-04 05:25 | -47.87485 | 167.15128 | 38427 ft | 460 kts | 316° |
| 2026-05-04 05:26 | -47.82681 | 167.08800 | 38427 ft | 461 kts | 316° |
| 2026-05-04 05:26 | -47.77897 | 167.02516 | 38426 ft | 460 kts | 316° |
| 2026-05-04 05:28 | -47.58687 | 166.77444 | 38425 ft | 458 kts | 316° |
| 2026-05-04 05:29 | -47.53891 | 166.71222 | 38425 ft | 459 kts | 316° |
| 2026-05-04 05:29 | -47.49105 | 166.65031 | 38424 ft | 459 kts | 316° |
| 2026-05-04 05:31 | -47.29859 | 166.40291 | 38424 ft | 459 kts | 316° |
| 2026-05-04 05:32 | -47.25030 | 166.34123 | 38425 ft | 459 kts | 317° |
| 2026-05-04 05:33 | -47.17742 | 166.24843 | 38428 ft | 461 kts | 316° |
| 2026-05-04 05:33 | -47.12912 | 166.18712 | 38424 ft | 455 kts | 316° |
| 2026-05-04 05:34 | -47.08135 | 166.12662 | 38428 ft | 457 kts | 316° |
| 2026-05-04 05:34 | -47.03296 | 166.06549 | 38426 ft | 457 kts | 316° |
| 2026-05-04 05:35 | -46.98459 | 166.00453 | 38427 ft | 457 kts | 316° |
| 2026-05-04 05:35 | -46.93650 | 165.94409 | 38426 ft | 457 kts | 316° |
| 2026-05-04 05:36 | -46.88799 | 165.88327 | 38426 ft | 457 kts | 316° |
| 2026-05-04 05:36 | -46.83978 | 165.82297 | 38425 ft | 457 kts | 316° |
| 2026-05-04 05:37 | -46.79136 | 165.76256 | 38425 ft | 457 kts | 316° |
| 2026-05-04 05:37 | -46.74317 | 165.70254 | 38428 ft | 461 kts | 316° |
| 2026-05-04 05:38 | -46.66982 | 165.61157 | 38424 ft | 459 kts | 316° |
| 2026-05-04 05:38 | -46.62126 | 165.55150 | 38424 ft | 460 kts | 316° |
| 2026-05-04 05:39 | -46.54821 | 165.46140 | 38423 ft | 460 kts | 316° |
| 2026-05-04 05:40 | -46.47497 | 165.37140 | 38423 ft | 460 kts | 316° |
| 2026-05-04 05:40 | -46.42719 | 165.31288 | 38429 ft | 460 kts | 317° |
| 2026-05-04 05:41 | -46.37589 | 165.25670 | 38428 ft | 461 kts | 321° |
| 2026-05-04 05:41 | -46.32397 | 165.20129 | 38431 ft | 465 kts | 321° |
| 2026-05-04 05:42 | -46.27164 | 165.14574 | 38426 ft | 464 kts | 321° |
| 2026-05-04 05:42 | -46.21981 | 165.09085 | 38427 ft | 462 kts | 321° |
| 2026-05-04 05:43 | -46.16783 | 165.03593 | 38427 ft | 462 kts | 321° |
| 2026-05-04 05:45 | -45.95996 | 164.81764 | 38426 ft | 462 kts | 321° |
| 2026-05-04 05:47 | -45.75115 | 164.60045 | 38533 ft | 464 kts | 321° |
| 2026-05-04 05:47 | -45.69921 | 164.54677 | 38527 ft | 454 kts | 321° |
| 2026-05-04 05:48 | -45.64814 | 164.49405 | 38534 ft | 451 kts | 321° |
| 2026-05-04 05:48 | -45.59722 | 164.44163 | 38532 ft | 454 kts | 321° |
| 2026-05-04 05:49 | -45.54589 | 164.38893 | 38531 ft | 453 kts | 321° |
| 2026-05-04 05:49 | -45.49562 | 164.33742 | 38534 ft | 453 kts | 322° |
| 2026-05-04 05:51 | -45.28996 | 164.12788 | 38534 ft | 456 kts | 322° |
| 2026-05-04 05:52 | -45.23809 | 164.07535 | 38535 ft | 456 kts | 322° |
| 2026-05-04 05:52 | -45.18654 | 164.02325 | 38534 ft | 455 kts | 322° |
| 2026-05-04 05:54 | -44.97997 | 163.81564 | 38533 ft | 455 kts | 322° |
| 2026-05-04 05:55 | -44.92832 | 163.76404 | 38532 ft | 455 kts | 322° |
| 2026-05-04 05:55 | -44.87648 | 163.71234 | 38533 ft | 454 kts | 322° |
| 2026-05-04 05:56 | -44.82472 | 163.66086 | 38534 ft | 454 kts | 322° |
| 2026-05-04 05:56 | -44.77312 | 163.60965 | 38533 ft | 454 kts | 322° |
| 2026-05-04 05:57 | -44.72165 | 163.55870 | 38533 ft | 453 kts | 322° |
| 2026-05-04 05:57 | -44.67005 | 163.50769 | 38532 ft | 451 kts | 322° |
| 2026-05-04 05:58 | -44.61903 | 163.45737 | 38531 ft | 452 kts | 322° |
| 2026-05-04 05:58 | -44.56726 | 163.40645 | 38531 ft | 452 kts | 322° |
| 2026-05-04 05:59 | -44.51609 | 163.35620 | 38531 ft | 452 kts | 322° |
| 2026-05-04 05:59 | -44.46415 | 163.30533 | 38536 ft | 452 kts | 322° |
| 2026-05-04 06:00 | -44.41262 | 163.25497 | 38536 ft | 452 kts | 322° |
| 2026-05-04 06:00 | -44.36137 | 163.20497 | 38533 ft | 446 kts | 323° |
| 2026-05-04 06:01 | -44.31044 | 163.15543 | 38535 ft | 445 kts | 323° |
| 2026-05-04 06:03 | -44.10576 | 162.95798 | 38533 ft | 448 kts | 323° |
| 2026-05-04 06:05 | -43.87359 | 162.73881 | 38534 ft | 448 kts | 323° |
| 2026-05-04 06:06 | -43.82508 | 162.68567 | 38536 ft | 444 kts | 317° |
| 2026-05-04 06:06 | -43.77849 | 162.62894 | 38534 ft | 444 kts | 317° |
| 2026-05-04 06:07 | -43.73225 | 162.57256 | 38533 ft | 445 kts | 317° |
| 2026-05-04 06:07 | -43.68560 | 162.51573 | 38533 ft | 445 kts | 317° |
| 2026-05-04 06:08 | -43.63929 | 162.45943 | 38532 ft | 445 kts | 317° |
| 2026-05-04 06:08 | -43.59266 | 162.40283 | 38532 ft | 445 kts | 317° |
| 2026-05-04 06:09 | -43.54623 | 162.34660 | 38532 ft | 445 kts | 317° |
| 2026-05-04 06:11 | -43.36039 | 162.12274 | 38534 ft | 444 kts | 318° |
| 2026-05-04 06:13 | -43.17358 | 161.89961 | 38531 ft | 448 kts | 319° |
| 2026-05-04 06:14 | -43.00901 | 161.70459 | 38529 ft | 446 kts | 319° |
| 2026-05-04 06:15 | -42.96209 | 161.64926 | 38530 ft | 446 kts | 319° |
| 2026-05-04 06:15 | -42.91480 | 161.59361 | 38529 ft | 446 kts | 319° |
| 2026-05-04 06:16 | -42.86755 | 161.53813 | 38547 ft | 446 kts | 319° |
| 2026-05-04 06:16 | -42.84423 | 161.51079 | 38648 ft | 445 kts | 319° |
| 2026-05-04 06:16 | -42.82078 | 161.48332 | 38778 ft | 446 kts | 319° |
| 2026-05-04 06:17 | -42.79720 | 161.45573 | 38929 ft | 446 kts | 319° |
| 2026-05-04 06:17 | -42.77350 | 161.42802 | 39078 ft | 446 kts | 319° |
| 2026-05-04 06:17 | -42.74997 | 161.40056 | 39226 ft | 446 kts | 319° |
| 2026-05-04 06:17 | -42.72646 | 161.37311 | 39369 ft | 448 kts | 319° |
| 2026-05-04 06:18 | -42.70280 | 161.34555 | 39503 ft | 451 kts | 320° |
| 2026-05-04 06:18 | -42.67888 | 161.31772 | 39509 ft | 452 kts | 320° |
| 2026-05-04 06:20 | -42.48832 | 161.09692 | 39508 ft | 448 kts | 320° |
| 2026-05-04 06:21 | -42.36940 | 160.96007 | 39506 ft | 448 kts | 320° |
| 2026-05-04 06:22 | -42.32185 | 160.90555 | 39506 ft | 448 kts | 320° |
| 2026-05-04 06:25 | -41.98940 | 160.52742 | 39502 ft | 445 kts | 320° |
| 2026-05-04 06:26 | -41.94184 | 160.47377 | 39502 ft | 445 kts | 320° |
| 2026-05-04 06:26 | -41.89424 | 160.42017 | 39503 ft | 445 kts | 320° |
| 2026-05-04 06:27 | -41.77507 | 160.28647 | 39510 ft | 445 kts | 321° |
| 2026-05-04 06:28 | -41.72749 | 160.23328 | 39507 ft | 447 kts | 321° |
| 2026-05-04 06:28 | -41.67921 | 160.17943 | 39508 ft | 448 kts | 321° |
| 2026-05-04 06:29 | -41.63124 | 160.12599 | 39508 ft | 447 kts | 321° |
| 2026-05-04 06:29 | -41.58298 | 160.07237 | 39508 ft | 448 kts | 321° |
| 2026-05-04 06:30 | -41.53524 | 160.01942 | 39508 ft | 447 kts | 321° |
| 2026-05-04 06:30 | -41.48701 | 159.96605 | 39507 ft | 447 kts | 321° |
| 2026-05-04 06:31 | -41.43870 | 159.91269 | 39507 ft | 447 kts | 321° |
| 2026-05-04 06:31 | -41.39061 | 159.85967 | 39506 ft | 447 kts | 321° |
| 2026-05-04 06:33 | -41.19853 | 159.64894 | 39506 ft | 447 kts | 321° |
| 2026-05-04 06:34 | -41.15002 | 159.59599 | 39503 ft | 447 kts | 321° |
| 2026-05-04 06:34 | -41.10212 | 159.54381 | 39503 ft | 447 kts | 321° |
| 2026-05-04 06:36 | -40.90933 | 159.33479 | 39504 ft | 447 kts | 321° |
| 2026-05-04 06:37 | -40.86127 | 159.28294 | 39511 ft | 447 kts | 321° |
| 2026-05-04 06:37 | -40.81312 | 159.23109 | 39510 ft | 447 kts | 321° |
| 2026-05-04 06:38 | -40.76470 | 159.17908 | 39509 ft | 447 kts | 321° |
| 2026-05-04 06:40 | -40.57212 | 158.97308 | 39343 ft | 445 kts | 321° |
| 2026-05-04 06:40 | -40.52402 | 158.92189 | 39206 ft | 445 kts | 321° |
| 2026-05-04 06:41 | -40.47598 | 158.87085 | 39069 ft | 445 kts | 321° |
| 2026-05-04 06:41 | -40.42783 | 158.81979 | 38932 ft | 445 kts | 321° |
| 2026-05-04 06:42 | -40.37960 | 158.76875 | 38912 ft | 444 kts | 321° |
| 2026-05-04 06:44 | -40.18739 | 158.56627 | 38909 ft | 445 kts | 320° |
| 2026-05-04 06:44 | -40.13943 | 158.51598 | 38908 ft | 444 kts | 320° |
| 2026-05-04 06:45 | -40.09083 | 158.46512 | 38908 ft | 444 kts | 320° |
| 2026-05-04 06:45 | -40.04265 | 158.41478 | 38908 ft | 444 kts | 320° |
| 2026-05-04 06:46 | -39.99437 | 158.36446 | 38907 ft | 444 kts | 320° |
| 2026-05-04 06:46 | -39.95081 | 158.31912 | 38912 ft | 444 kts | 321° |
| 2026-05-04 06:48 | -39.75717 | 158.11850 | 38915 ft | 445 kts | 321° |
| 2026-05-04 06:50 | -39.56151 | 157.91730 | 38913 ft | 449 kts | 321° |
| 2026-05-04 06:51 | -39.51240 | 157.86703 | 38912 ft | 449 kts | 321° |
| 2026-05-04 06:51 | -39.46369 | 157.81726 | 38912 ft | 449 kts | 321° |
| 2026-05-04 06:52 | -39.41435 | 157.76694 | 38912 ft | 449 kts | 321° |
| 2026-05-04 06:52 | -39.36552 | 157.71725 | 38910 ft | 447 kts | 321° |
| 2026-05-04 06:53 | -39.31677 | 157.66771 | 38911 ft | 447 kts | 321° |
| 2026-05-04 06:53 | -39.26785 | 157.61809 | 38910 ft | 447 kts | 321° |
| 2026-05-04 06:54 | -39.21954 | 157.56744 | 38912 ft | 450 kts | 319° |
| 2026-05-04 06:54 | -39.17113 | 157.51564 | 38909 ft | 450 kts | 320° |
| 2026-05-04 06:55 | -39.12304 | 157.46429 | 38909 ft | 449 kts | 320° |
| 2026-05-04 06:55 | -39.07462 | 157.41270 | 38909 ft | 450 kts | 320° |
| 2026-05-04 06:57 | -38.88171 | 157.20815 | 38912 ft | 444 kts | 320° |
| 2026-05-04 06:58 | -38.83432 | 157.15810 | 38917 ft | 443 kts | 320° |
| 2026-05-04 06:58 | -38.78658 | 157.10779 | 38915 ft | 445 kts | 320° |
| 2026-05-04 06:59 | -38.73861 | 157.05733 | 38913 ft | 444 kts | 320° |
| 2026-05-04 06:59 | -38.69077 | 157.00711 | 38915 ft | 448 kts | 319° |
| 2026-05-04 07:01 | -38.49811 | 156.80568 | 38912 ft | 447 kts | 319° |
| 2026-05-04 07:02 | -38.45009 | 156.75572 | 38911 ft | 447 kts | 319° |
| 2026-05-04 07:02 | -38.40174 | 156.70548 | 38909 ft | 444 kts | 319° |
| 2026-05-04 07:03 | -38.35381 | 156.65578 | 38911 ft | 445 kts | 319° |
| 2026-05-04 07:03 | -38.30583 | 156.60611 | 38910 ft | 445 kts | 319° |
| 2026-05-04 07:04 | -38.25775 | 156.55643 | 38909 ft | 445 kts | 319° |
| 2026-05-04 07:04 | -38.20961 | 156.50679 | 38905 ft | 443 kts | 319° |
| 2026-05-04 07:05 | -38.16167 | 156.45741 | 38909 ft | 444 kts | 319° |
| 2026-05-04 07:05 | -38.11358 | 156.40797 | 38907 ft | 444 kts | 319° |
| 2026-05-04 07:06 | -38.04147 | 156.33400 | 38913 ft | 444 kts | 319° |
| 2026-05-04 07:07 | -38.00144 | 156.29303 | 38913 ft | 444 kts | 319° |
| 2026-05-04 07:09 | -37.80981 | 156.09769 | 38915 ft | 441 kts | 319° |
| 2026-05-04 07:09 | -37.76200 | 156.04916 | 38914 ft | 441 kts | 319° |
| 2026-05-04 07:10 | -37.71392 | 156.00049 | 38911 ft | 438 kts | 318° |
| 2026-05-04 07:12 | -37.52360 | 155.80841 | 38911 ft | 439 kts | 318° |
| 2026-05-04 07:12 | -37.47571 | 155.76030 | 38911 ft | 439 kts | 318° |
| 2026-05-04 07:13 | -37.42791 | 155.71236 | 38907 ft | 436 kts | 318° |
| 2026-05-04 07:13 | -37.38061 | 155.66499 | 38910 ft | 436 kts | 318° |
| 2026-05-04 07:14 | -37.26172 | 155.54628 | 38908 ft | 436 kts | 318° |
| 2026-05-04 07:15 | -37.21404 | 155.49886 | 38907 ft | 433 kts | 317° |
| 2026-05-04 07:15 | -37.16702 | 155.45210 | 38907 ft | 431 kts | 317° |
| 2026-05-04 07:16 | -37.12018 | 155.40561 | 38905 ft | 432 kts | 317° |
| 2026-05-04 07:16 | -37.07289 | 155.35877 | 38904 ft | 432 kts | 317° |
| 2026-05-04 07:17 | -37.02566 | 155.31206 | 38915 ft | 433 kts | 318° |
| 2026-05-04 07:17 | -36.97862 | 155.26561 | 38914 ft | 432 kts | 318° |
| 2026-05-04 07:18 | -36.93154 | 155.21921 | 38950 ft | 427 kts | 318° |
| 2026-05-04 07:18 | -36.88484 | 155.17323 | 38972 ft | 428 kts | 318° |
| 2026-05-04 07:19 | -36.83795 | 155.12715 | 38970 ft | 428 kts | 318° |
| 2026-05-04 07:19 | -36.79136 | 155.08144 | 38969 ft | 428 kts | 318° |
| 2026-05-04 07:20 | -36.74459 | 155.03561 | 38969 ft | 428 kts | 318° |
| 2026-05-04 07:20 | -36.69779 | 154.98988 | 38966 ft | 425 kts | 317° |
| 2026-05-04 07:22 | -36.51118 | 154.80808 | 38965 ft | 425 kts | 317° |
| 2026-05-04 07:23 | -36.46469 | 154.76297 | 38964 ft | 425 kts | 317° |
| 2026-05-04 07:23 | -36.41815 | 154.71786 | 38961 ft | 423 kts | 318° |
| 2026-05-04 07:24 | -36.37188 | 154.67313 | 38963 ft | 423 kts | 318° |
| 2026-05-04 07:24 | -36.32521 | 154.62805 | 38961 ft | 423 kts | 318° |
| 2026-05-04 07:26 | -36.14036 | 154.45023 | 38959 ft | 420 kts | 317° |
| 2026-05-04 07:27 | -36.09432 | 154.40610 | 38957 ft | 419 kts | 317° |
| 2026-05-04 07:27 | -36.04809 | 154.36186 | 38956 ft | 419 kts | 317° |
| 2026-05-04 07:28 | -36.00200 | 154.31822 | 38970 ft | 420 kts | 318° |
| 2026-05-04 07:28 | -35.95536 | 154.27438 | 38968 ft | 420 kts | 318° |
| 2026-05-04 07:29 | -35.90897 | 154.23080 | 38968 ft | 419 kts | 318° |
| 2026-05-04 07:29 | -35.86275 | 154.18749 | 38972 ft | 418 kts | 318° |
| 2026-05-04 07:30 | -35.81642 | 154.14412 | 39020 ft | 418 kts | 318° |
| 2026-05-04 07:30 | -35.76996 | 154.10068 | 39024 ft | 419 kts | 318° |
| 2026-05-04 07:31 | -35.72358 | 154.05742 | 39024 ft | 416 kts | 318° |
| 2026-05-04 07:33 | -35.53903 | 153.88580 | 39020 ft | 416 kts | 318° |
| 2026-05-04 07:33 | -35.49297 | 153.84314 | 39019 ft | 416 kts | 318° |
| 2026-05-04 07:34 | -35.44679 | 153.80041 | 39018 ft | 416 kts | 318° |
| 2026-05-04 07:34 | -35.40076 | 153.75790 | 39017 ft | 416 kts | 318° |
| 2026-05-04 07:35 | -35.35468 | 153.71541 | 39013 ft | 413 kts | 318° |
| 2026-05-04 07:35 | -35.30856 | 153.67293 | 39016 ft | 413 kts | 318° |
| 2026-05-04 07:36 | -35.26253 | 153.63058 | 39014 ft | 414 kts | 318° |
| 2026-05-04 07:38 | -35.08166 | 153.46486 | 39010 ft | 405 kts | 317° |
| 2026-05-04 07:38 | -35.03625 | 153.42339 | 39009 ft | 405 kts | 317° |
| 2026-05-04 07:39 | -34.99116 | 153.38228 | 38950 ft | 406 kts | 317° |
| 2026-05-04 07:39 | -34.96836 | 153.36150 | 38796 ft | 406 kts | 317° |
| 2026-05-04 07:39 | -34.94693 | 153.34201 | 38625 ft | 404 kts | 317° |
| 2026-05-04 07:40 | -34.92446 | 153.32158 | 38426 ft | 403 kts | 317° |
| 2026-05-04 07:40 | -34.90199 | 153.30115 | 38174 ft | 403 kts | 317° |
| 2026-05-04 07:40 | -34.87965 | 153.28085 | 37935 ft | 403 kts | 318° |
| 2026-05-04 07:40 | -34.85696 | 153.26025 | 37676 ft | 404 kts | 318° |
| 2026-05-04 07:41 | -34.83423 | 153.23962 | 37376 ft | 404 kts | 318° |
| 2026-05-04 07:41 | -34.81171 | 153.21919 | 37063 ft | 405 kts | 319° |
| 2026-05-04 07:41 | -34.78925 | 153.19887 | 36750 ft | 404 kts | 319° |
| 2026-05-04 07:41 | -34.76672 | 153.17848 | 36413 ft | 404 kts | 319° |
| 2026-05-04 07:42 | -34.74415 | 153.15807 | 36063 ft | 404 kts | 319° |
| 2026-05-04 07:42 | -34.72179 | 153.13788 | 35700 ft | 401 kts | 319° |
| 2026-05-04 07:42 | -34.69933 | 153.11760 | 35316 ft | 399 kts | 319° |
| 2026-05-04 07:42 | -34.67696 | 153.09738 | 34924 ft | 401 kts | 319° |
| 2026-05-04 07:43 | -34.65443 | 153.07706 | 34525 ft | 403 kts | 319° |
| 2026-05-04 07:43 | -34.63195 | 153.05678 | 34093 ft | 404 kts | 319° |
| 2026-05-04 07:43 | -34.60940 | 153.03645 | 33623 ft | 405 kts | 320° |
| 2026-05-04 07:43 | -34.58663 | 153.01596 | 33151 ft | 407 kts | 320° |
| 2026-05-04 07:44 | -34.56391 | 152.99553 | 32682 ft | 409 kts | 320° |
| 2026-05-04 07:44 | -34.54100 | 152.97493 | 32210 ft | 411 kts | 321° |
| 2026-05-04 07:44 | -34.51810 | 152.95436 | 31741 ft | 412 kts | 321° |
| 2026-05-04 07:44 | -34.49532 | 152.93391 | 31297 ft | 409 kts | 321° |
| 2026-05-04 07:45 | -34.47231 | 152.91328 | 30841 ft | 407 kts | 321° |
| 2026-05-04 07:45 | -34.44994 | 152.89323 | 30392 ft | 405 kts | 321° |
| 2026-05-04 07:45 | -34.42710 | 152.87277 | 29931 ft | 403 kts | 322° |
| 2026-05-04 07:45 | -34.40454 | 152.85260 | 29474 ft | 402 kts | 322° |
| 2026-05-04 07:46 | -34.38212 | 152.83255 | 29017 ft | 401 kts | 322° |
| 2026-05-04 07:46 | -34.35980 | 152.81261 | 28540 ft | 400 kts | 322° |
| 2026-05-04 07:46 | -34.33729 | 152.79246 | 28009 ft | 399 kts | 321° |
| 2026-05-04 07:46 | -34.31502 | 152.77257 | 27476 ft | 398 kts | 322° |
| 2026-05-04 07:47 | -34.29263 | 152.75261 | 26938 ft | 397 kts | 321° |
| 2026-05-04 07:47 | -34.27039 | 152.73277 | 26403 ft | 395 kts | 321° |
| 2026-05-04 07:47 | -34.24861 | 152.71335 | 25874 ft | 393 kts | 322° |
| 2026-05-04 07:49 | -34.09987 | 152.56976 | 21938 ft | 375 kts | 304° |
| 2026-05-04 07:49 | -34.08733 | 152.54210 | 21222 ft | 372 kts | 294° |
| 2026-05-04 07:49 | -34.07990 | 152.51263 | 20570 ft | 370 kts | 283° |
| 2026-05-04 07:50 | -34.07572 | 152.48236 | 19940 ft | 372 kts | 281° |
| 2026-05-04 07:50 | -34.07208 | 152.45099 | 19294 ft | 370 kts | 279° |
| 2026-05-04 07:50 | -34.06886 | 152.42033 | 18686 ft | 368 kts | 279° |
| 2026-05-04 07:50 | -34.06580 | 152.38968 | 18075 ft | 367 kts | 279° |
| 2026-05-04 07:51 | -34.06285 | 152.35942 | 17496 ft | 364 kts | 278° |
| 2026-05-04 07:51 | -34.05993 | 152.32886 | 16911 ft | 362 kts | 278° |
| 2026-05-04 07:51 | -34.05704 | 152.29874 | 16333 ft | 360 kts | 279° |
| 2026-05-04 07:51 | -34.05419 | 152.26907 | 15749 ft | 350 kts | 279° |
| 2026-05-04 07:52 | -34.05144 | 152.24030 | 15206 ft | 341 kts | 279° |
| 2026-05-04 07:52 | -34.04873 | 152.21219 | 14694 ft | 336 kts | 278° |
| 2026-05-04 07:52 | -34.04603 | 152.18417 | 14176 ft | 335 kts | 278° |
| 2026-05-04 07:52 | -34.04333 | 152.15624 | 13664 ft | 332 kts | 278° |
| 2026-05-04 07:53 | -34.04067 | 152.12857 | 13174 ft | 329 kts | 278° |
| 2026-05-04 07:54 | -34.02258 | 151.94594 | 10413 ft | 298 kts | 279° |
| 2026-05-04 07:55 | -34.02010 | 151.92128 | 10153 ft | 294 kts | 279° |
| 2026-05-04 07:55 | -34.01759 | 151.89662 | 9896 ft | 293 kts | 279° |
| 2026-05-04 07:55 | -34.01518 | 151.87279 | 9638 ft | 276 kts | 280° |
| 2026-05-04 07:55 | -34.01291 | 151.85030 | 9509 ft | 266 kts | 280° |
| 2026-05-04 07:56 | -34.01063 | 151.82802 | 9242 ft | 263 kts | 280° |
| 2026-05-04 07:56 | -34.00842 | 151.80633 | 8983 ft | 259 kts | 280° |
| 2026-05-04 07:56 | -34.00622 | 151.78482 | 8741 ft | 255 kts | 280° |
| 2026-05-04 07:56 | -34.00405 | 151.76355 | 8559 ft | 254 kts | 280° |
| 2026-05-04 07:57 | -34.00189 | 151.74246 | 8378 ft | 253 kts | 281° |
| 2026-05-04 07:57 | -33.99970 | 151.72125 | 8195 ft | 253 kts | 281° |
| 2026-05-04 07:57 | -33.99754 | 151.70029 | 7993 ft | 252 kts | 281° |
| 2026-05-04 07:57 | -33.99538 | 151.67935 | 7784 ft | 251 kts | 281° |
| 2026-05-04 07:58 | -33.99321 | 151.65828 | 7601 ft | 250 kts | 280° |
| 2026-05-04 07:58 | -33.99104 | 151.63727 | 7418 ft | 250 kts | 281° |
| 2026-05-04 07:58 | -33.98886 | 151.61638 | 7235 ft | 249 kts | 281° |
| 2026-05-04 07:58 | -33.98670 | 151.59558 | 7007 ft | 249 kts | 281° |
| 2026-05-04 07:59 | -33.98455 | 151.57486 | 6748 ft | 248 kts | 281° |
| 2026-05-04 07:59 | -33.98240 | 151.55421 | 6566 ft | 247 kts | 281° |
| 2026-05-04 07:59 | -33.98026 | 151.53365 | 6410 ft | 247 kts | 280° |
| 2026-05-04 07:59 | -33.98043 | 151.51271 | 6199 ft | 253 kts | 260° |
| 2026-05-04 08:00 | -33.98885 | 151.49390 | 6033 ft | 264 kts | 231° |
| 2026-05-04 08:00 | -34.00464 | 151.48177 | 6010 ft | 274 kts | 202° |
| 2026-05-04 08:00 | -34.02358 | 151.47717 | 6013 ft | 280 kts | 192° |
| 2026-05-04 08:02 | -34.15480 | 151.45302 | 5343 ft | 263 kts | 192° |
| 2026-05-04 08:02 | -34.17256 | 151.44977 | 4968 ft | 252 kts | 192° |
| 2026-05-04 08:02 | -34.18969 | 151.44568 | 4594 ft | 250 kts | 206° |
| 2026-05-04 08:03 | -34.20324 | 151.43411 | 4270 ft | 232 kts | 238° |
| 2026-05-04 08:03 | -34.20968 | 151.41681 | 4021 ft | 222 kts | 260° |
| 2026-05-04 08:03 | -34.21325 | 151.39873 | 3743 ft | 221 kts | 262° |
| 2026-05-04 08:03 | -34.21683 | 151.38029 | 3463 ft | 223 kts | 261° |
| 2026-05-04 08:04 | -34.22033 | 151.36212 | 3207 ft | 224 kts | 261° |
| 2026-05-04 08:04 | -34.22390 | 151.34352 | 3005 ft | 220 kts | 262° |
| 2026-05-04 08:04 | -34.22730 | 151.32585 | 2997 ft | 214 kts | 262° |
| 2026-05-04 08:04 | -34.22926 | 151.30791 | 2994 ft | 209 kts | 282° |
| 2026-05-04 08:05 | -34.22348 | 151.29242 | 3021 ft | 202 kts | 315° |
| 2026-05-04 08:05 | -34.21294 | 151.28134 | 3012 ft | 202 kts | 323° |
| 2026-05-04 08:05 | -34.20188 | 151.27089 | 3000 ft | 200 kts | 323° |
| 2026-05-04 08:05 | -34.19090 | 151.26050 | 3002 ft | 199 kts | 323° |
| 2026-05-04 08:06 | -34.18009 | 151.25032 | 2991 ft | 191 kts | 323° |
| 2026-05-04 08:06 | -34.16964 | 151.24075 | 3030 ft | 183 kts | 323° |
| 2026-05-04 08:06 | -34.15936 | 151.23241 | 3006 ft | 174 kts | 336° |
| 2026-05-04 08:06 | -34.14789 | 151.22871 | 3002 ft | 171 kts | 346° |
| 2026-05-04 08:08 | -34.07335 | 151.20897 | 2181 ft | 137 kts | 346° |
| 2026-05-04 08:08 | -34.06415 | 151.20659 | 2017 ft | 137 kts | 347° |
| 2026-05-04 08:10 | -33.99167 | 151.18776 | 594 ft | 133 kts | 349° |
| 2026-05-04 08:11 | -33.98256 | 151.18541 | 416 ft | 134 kts | 349° |
| 2026-05-04 08:11 | -33.96407 | 151.18060 | 61 ft | 136 kts | 349° |
| 2026-05-04 08:11 | -33.95522 | 151.17831 | 18 ft | 118 kts | 347° |
| 2026-05-04 08:12 | -33.94857 | 151.17658 | 25 ft | 79 kts | 347° |
| 2026-05-04 08:12 | -33.94527 | 151.17539 | 25 ft | 43 kts | 333° |
| 2026-05-04 08:12 | -33.94359 | 151.17389 | 25 ft | 10 kts | 319° |
| 2026-05-04 08:12 | -33.94338 | 151.17368 | 25 ft | 3 kts | 319° |
| 2026-05-04 08:13 | -33.94327 | 151.17355 | 24 ft | 3 kts | 319° |
| 2026-05-04 08:13 | -33.94302 | 151.17331 | 24 ft | 5 kts | 321° |
| 2026-05-04 08:13 | -33.94249 | 151.17297 | 24 ft | 12 kts | 341° |
| 2026-05-04 08:13 | -33.94144 | 151.17268 | 23 ft | 18 kts | 348° |
| 2026-05-04 08:14 | -33.94010 | 151.17233 | 22 ft | 21 kts | 348° |
| 2026-05-04 08:14 | -33.93860 | 151.17194 | 21 ft | 21 kts | 348° |
| 2026-05-04 08:14 | -33.93732 | 151.17156 | 22 ft | 11 kts | 328° |
| 2026-05-04 08:16 | -33.93797 | 151.16952 | 29 ft | 0 kts | 253° |